<?xml version="1.0" encoding="UTF-8" standalone="no" ?>
<gpx xmlns="http://www.topografix.com/GPX/1/1" xmlns:xsi="http://www.w3.org/2001/XMLSchema-instance" xsi:schemaLocation="http://www.topografix.com/GPX/1/1 http://www.topografix.com/GPX/1/1/gpx.xsd" version="1.1" creator="VisuGPX - https://www.visugpx.com">
  <metadata>
    <name>MILLAU J1 et 2</name>
  </metadata>
  <trk>
    <name><![CDATA[MILLAU J1 - La Roque-Ste-Marguerite Run 3]]></name>
    <trkseg>
      <trkpt lat="44.14202" lon="3.2021">
        <ele>868.20001220703</ele>
        <time>2020-10-02T13:31:08.000Z</time>
      </trkpt>
      <trkpt lat="44.14201" lon="3.20215">
        <ele>865.40002441406</ele>
        <time>2020-10-02T13:31:12.000Z</time>
      </trkpt>
      <trkpt lat="44.14201" lon="3.20215">
        <ele>860.40002441406</ele>
        <time>2020-10-02T13:31:13.000Z</time>
      </trkpt>
      <trkpt lat="44.14201" lon="3.20215">
        <ele>862</ele>
        <time>2020-10-02T13:31:14.000Z</time>
      </trkpt>
      <trkpt lat="44.14202" lon="3.20215">
        <ele>863.20001220703</ele>
        <time>2020-10-02T13:31:16.000Z</time>
      </trkpt>
      <trkpt lat="44.14203" lon="3.20213">
        <ele>862.79998779297</ele>
        <time>2020-10-02T13:31:24.000Z</time>
      </trkpt>
      <trkpt lat="44.14203" lon="3.20213">
        <ele>862.40002441406</ele>
        <time>2020-10-02T13:31:27.000Z</time>
      </trkpt>
      <trkpt lat="44.14201" lon="3.20215">
        <ele>861.20001220703</ele>
        <time>2020-10-02T13:31:37.000Z</time>
      </trkpt>
      <trkpt lat="44.14201" lon="3.20216">
        <ele>861</ele>
        <time>2020-10-02T13:31:39.000Z</time>
      </trkpt>
      <trkpt lat="44.14201" lon="3.20217">
        <ele>860.40002441406</ele>
        <time>2020-10-02T13:31:42.000Z</time>
      </trkpt>
      <trkpt lat="44.142" lon="3.2022">
        <ele>859.79998779297</ele>
        <time>2020-10-02T13:31:53.000Z</time>
      </trkpt>
      <trkpt lat="44.142" lon="3.20218">
        <ele>859.79998779297</ele>
        <time>2020-10-02T13:31:58.000Z</time>
      </trkpt>
      <trkpt lat="44.14194" lon="3.20218">
        <ele>859.79998779297</ele>
        <time>2020-10-02T13:32:07.000Z</time>
      </trkpt>
      <trkpt lat="44.14192" lon="3.20218">
        <ele>859.79998779297</ele>
        <time>2020-10-02T13:32:09.000Z</time>
      </trkpt>
      <trkpt lat="44.14183" lon="3.20218">
        <ele>859.79998779297</ele>
        <time>2020-10-02T13:32:14.000Z</time>
      </trkpt>
      <trkpt lat="44.14171" lon="3.20218">
        <ele>859.79998779297</ele>
        <time>2020-10-02T13:32:19.000Z</time>
      </trkpt>
      <trkpt lat="44.14171" lon="3.20219">
        <ele>860.79998779297</ele>
        <time>2020-10-02T13:32:25.000Z</time>
      </trkpt>
      <trkpt lat="44.14171" lon="3.20219">
        <ele>861.59997558594</ele>
        <time>2020-10-02T13:32:28.000Z</time>
      </trkpt>
      <trkpt lat="44.14171" lon="3.20218">
        <ele>862.20001220703</ele>
        <time>2020-10-02T13:32:40.000Z</time>
      </trkpt>
      <trkpt lat="44.14173" lon="3.20219">
        <ele>862.59997558594</ele>
        <time>2020-10-02T13:32:55.000Z</time>
      </trkpt>
      <trkpt lat="44.14177" lon="3.20221">
        <ele>863.20001220703</ele>
        <time>2020-10-02T13:33:11.000Z</time>
      </trkpt>
      <trkpt lat="44.14175" lon="3.20225">
        <ele>864</ele>
        <time>2020-10-02T13:33:22.000Z</time>
      </trkpt>
      <trkpt lat="44.14175" lon="3.20224">
        <ele>864.40002441406</ele>
        <time>2020-10-02T13:33:26.000Z</time>
      </trkpt>
      <trkpt lat="44.14176" lon="3.20224">
        <ele>865.20001220703</ele>
        <time>2020-10-02T13:33:43.000Z</time>
      </trkpt>
      <trkpt lat="44.14175" lon="3.20223">
        <ele>866</ele>
        <time>2020-10-02T13:33:54.000Z</time>
      </trkpt>
      <trkpt lat="44.14174" lon="3.20223">
        <ele>866.40002441406</ele>
        <time>2020-10-02T13:33:59.000Z</time>
      </trkpt>
      <trkpt lat="44.14169" lon="3.2023">
        <ele>866.79998779297</ele>
        <time>2020-10-02T13:34:04.000Z</time>
      </trkpt>
      <trkpt lat="44.14164" lon="3.20231">
        <ele>866.79998779297</ele>
        <time>2020-10-02T13:34:06.000Z</time>
      </trkpt>
      <trkpt lat="44.14154" lon="3.20234">
        <ele>867.20001220703</ele>
        <time>2020-10-02T13:34:09.000Z</time>
      </trkpt>
      <trkpt lat="44.1415" lon="3.20234">
        <ele>867.20001220703</ele>
        <time>2020-10-02T13:34:10.000Z</time>
      </trkpt>
      <trkpt lat="44.14122" lon="3.2025">
        <ele>867.40002441406</ele>
        <time>2020-10-02T13:34:17.000Z</time>
      </trkpt>
      <trkpt lat="44.14117" lon="3.20256">
        <ele>867.40002441406</ele>
        <time>2020-10-02T13:34:18.000Z</time>
      </trkpt>
      <trkpt lat="44.14106" lon="3.20277">
        <ele>867.40002441406</ele>
        <time>2020-10-02T13:34:21.000Z</time>
      </trkpt>
      <trkpt lat="44.14089" lon="3.203">
        <ele>867.40002441406</ele>
        <time>2020-10-02T13:34:25.000Z</time>
      </trkpt>
      <trkpt lat="44.14085" lon="3.20303">
        <ele>867.20001220703</ele>
        <time>2020-10-02T13:34:26.000Z</time>
      </trkpt>
      <trkpt lat="44.14076" lon="3.20306">
        <ele>867.20001220703</ele>
        <time>2020-10-02T13:34:30.000Z</time>
      </trkpt>
      <trkpt lat="44.14071" lon="3.20307">
        <ele>867.20001220703</ele>
        <time>2020-10-02T13:34:34.000Z</time>
      </trkpt>
      <trkpt lat="44.14067" lon="3.20309">
        <ele>867.20001220703</ele>
        <time>2020-10-02T13:34:36.000Z</time>
      </trkpt>
      <trkpt lat="44.14064" lon="3.20311">
        <ele>867.20001220703</ele>
        <time>2020-10-02T13:34:43.000Z</time>
      </trkpt>
      <trkpt lat="44.14064" lon="3.20314">
        <ele>867.20001220703</ele>
        <time>2020-10-02T13:34:55.000Z</time>
      </trkpt>
      <trkpt lat="44.14064" lon="3.20316">
        <ele>867</ele>
        <time>2020-10-02T13:35:03.000Z</time>
      </trkpt>
      <trkpt lat="44.14068" lon="3.20318">
        <ele>867</ele>
        <time>2020-10-02T13:35:13.000Z</time>
      </trkpt>
      <trkpt lat="44.14069" lon="3.20319">
        <ele>866.59997558594</ele>
        <time>2020-10-02T13:35:20.000Z</time>
      </trkpt>
      <trkpt lat="44.14069" lon="3.20319">
        <ele>866.20001220703</ele>
        <time>2020-10-02T13:35:33.000Z</time>
      </trkpt>
      <trkpt lat="44.14069" lon="3.20319">
        <ele>866</ele>
        <time>2020-10-02T13:35:36.000Z</time>
      </trkpt>
      <trkpt lat="44.1407" lon="3.20319">
        <ele>865.40002441406</ele>
        <time>2020-10-02T13:35:54.000Z</time>
      </trkpt>
      <trkpt lat="44.14072" lon="3.20326">
        <ele>865</ele>
        <time>2020-10-02T13:36:09.000Z</time>
      </trkpt>
      <trkpt lat="44.14072" lon="3.20327">
        <ele>865</ele>
        <time>2020-10-02T13:36:10.000Z</time>
      </trkpt>
      <trkpt lat="44.14074" lon="3.20332">
        <ele>865</ele>
        <time>2020-10-02T13:36:13.000Z</time>
      </trkpt>
      <trkpt lat="44.14074" lon="3.20345">
        <ele>864.59997558594</ele>
        <time>2020-10-02T13:36:17.000Z</time>
      </trkpt>
      <trkpt lat="44.14077" lon="3.20356">
        <ele>864.40002441406</ele>
        <time>2020-10-02T13:36:20.000Z</time>
      </trkpt>
      <trkpt lat="44.14079" lon="3.20356">
        <ele>864.20001220703</ele>
        <time>2020-10-02T13:36:21.000Z</time>
      </trkpt>
      <trkpt lat="44.14079" lon="3.20354">
        <ele>864</ele>
        <time>2020-10-02T13:36:22.000Z</time>
      </trkpt>
      <trkpt lat="44.1408" lon="3.2035">
        <ele>863.40002441406</ele>
        <time>2020-10-02T13:36:25.000Z</time>
      </trkpt>
      <trkpt lat="44.14083" lon="3.20348">
        <ele>863.20001220703</ele>
        <time>2020-10-02T13:36:27.000Z</time>
      </trkpt>
      <trkpt lat="44.14089" lon="3.20351">
        <ele>863.20001220703</ele>
        <time>2020-10-02T13:36:29.000Z</time>
      </trkpt>
      <trkpt lat="44.14096" lon="3.20363">
        <ele>863</ele>
        <time>2020-10-02T13:36:33.000Z</time>
      </trkpt>
      <trkpt lat="44.14095" lon="3.20383">
        <ele>862.59997558594</ele>
        <time>2020-10-02T13:36:39.000Z</time>
      </trkpt>
      <trkpt lat="44.14092" lon="3.20393">
        <ele>862.40002441406</ele>
        <time>2020-10-02T13:36:45.000Z</time>
      </trkpt>
      <trkpt lat="44.14089" lon="3.20395">
        <ele>862.20001220703</ele>
        <time>2020-10-02T13:36:53.000Z</time>
      </trkpt>
      <trkpt lat="44.14089" lon="3.20397">
        <ele>862.40002441406</ele>
        <time>2020-10-02T13:36:58.000Z</time>
      </trkpt>
      <trkpt lat="44.1409" lon="3.20398">
        <ele>862.20001220703</ele>
        <time>2020-10-02T13:37:02.000Z</time>
      </trkpt>
      <trkpt lat="44.14091" lon="3.20402">
        <ele>862.20001220703</ele>
        <time>2020-10-02T13:37:11.000Z</time>
      </trkpt>
      <trkpt lat="44.14085" lon="3.20399">
        <ele>862.20001220703</ele>
        <time>2020-10-02T13:37:18.000Z</time>
      </trkpt>
      <trkpt lat="44.14085" lon="3.20399">
        <ele>861.79998779297</ele>
        <time>2020-10-02T13:37:22.000Z</time>
      </trkpt>
      <trkpt lat="44.14084" lon="3.20399">
        <ele>861.79998779297</ele>
        <time>2020-10-02T13:37:27.000Z</time>
      </trkpt>
      <trkpt lat="44.14082" lon="3.20399">
        <ele>861.79998779297</ele>
        <time>2020-10-02T13:37:30.000Z</time>
      </trkpt>
      <trkpt lat="44.14082" lon="3.20403">
        <ele>861.79998779297</ele>
        <time>2020-10-02T13:37:32.000Z</time>
      </trkpt>
      <trkpt lat="44.1408" lon="3.20416">
        <ele>861.79998779297</ele>
        <time>2020-10-02T13:37:36.000Z</time>
      </trkpt>
      <trkpt lat="44.14079" lon="3.20418">
        <ele>861.59997558594</ele>
        <time>2020-10-02T13:37:37.000Z</time>
      </trkpt>
      <trkpt lat="44.14078" lon="3.20419">
        <ele>861.40002441406</ele>
        <time>2020-10-02T13:37:38.000Z</time>
      </trkpt>
      <trkpt lat="44.14075" lon="3.20437">
        <ele>861.20001220703</ele>
        <time>2020-10-02T13:37:45.000Z</time>
      </trkpt>
      <trkpt lat="44.14072" lon="3.20454">
        <ele>861</ele>
        <time>2020-10-02T13:37:52.000Z</time>
      </trkpt>
      <trkpt lat="44.14067" lon="3.20471">
        <ele>861.20001220703</ele>
        <time>2020-10-02T13:37:59.000Z</time>
      </trkpt>
      <trkpt lat="44.14065" lon="3.20478">
        <ele>861.20001220703</ele>
        <time>2020-10-02T13:38:02.000Z</time>
      </trkpt>
      <trkpt lat="44.14062" lon="3.20488">
        <ele>861.20001220703</ele>
        <time>2020-10-02T13:38:06.000Z</time>
      </trkpt>
      <trkpt lat="44.1406" lon="3.2049">
        <ele>861.40002441406</ele>
        <time>2020-10-02T13:38:14.000Z</time>
      </trkpt>
      <trkpt lat="44.14061" lon="3.2049">
        <ele>861.79998779297</ele>
        <time>2020-10-02T13:38:33.000Z</time>
      </trkpt>
      <trkpt lat="44.14062" lon="3.20491">
        <ele>861.79998779297</ele>
        <time>2020-10-02T13:38:44.000Z</time>
      </trkpt>
      <trkpt lat="44.14063" lon="3.20492">
        <ele>861.79998779297</ele>
        <time>2020-10-02T13:38:48.000Z</time>
      </trkpt>
      <trkpt lat="44.14064" lon="3.20495">
        <ele>861.59997558594</ele>
        <time>2020-10-02T13:38:58.000Z</time>
      </trkpt>
      <trkpt lat="44.14062" lon="3.20496">
        <ele>861.20001220703</ele>
        <time>2020-10-02T13:39:09.000Z</time>
      </trkpt>
      <trkpt lat="44.1406" lon="3.20508">
        <ele>861.20001220703</ele>
        <time>2020-10-02T13:39:14.000Z</time>
      </trkpt>
      <trkpt lat="44.14056" lon="3.20526">
        <ele>861.20001220703</ele>
        <time>2020-10-02T13:39:17.000Z</time>
      </trkpt>
      <trkpt lat="44.14055" lon="3.20532">
        <ele>861</ele>
        <time>2020-10-02T13:39:18.000Z</time>
      </trkpt>
      <trkpt lat="44.14053" lon="3.20537">
        <ele>861</ele>
        <time>2020-10-02T13:39:19.000Z</time>
      </trkpt>
      <trkpt lat="44.14045" lon="3.20561">
        <ele>855.59997558594</ele>
        <time>2020-10-02T13:39:24.000Z</time>
      </trkpt>
      <trkpt lat="44.14044" lon="3.20565">
        <ele>833</ele>
        <time>2020-10-02T13:39:25.000Z</time>
      </trkpt>
      <trkpt lat="44.14042" lon="3.2057">
        <ele>822.59997558594</ele>
        <time>2020-10-02T13:39:26.000Z</time>
      </trkpt>
      <trkpt lat="44.1404" lon="3.20575">
        <ele>814.20001220703</ele>
        <time>2020-10-02T13:39:27.000Z</time>
      </trkpt>
      <trkpt lat="44.14038" lon="3.20579">
        <ele>807.59997558594</ele>
        <time>2020-10-02T13:39:28.000Z</time>
      </trkpt>
      <trkpt lat="44.14037" lon="3.20583">
        <ele>802.40002441406</ele>
        <time>2020-10-02T13:39:29.000Z</time>
      </trkpt>
      <trkpt lat="44.14035" lon="3.20588">
        <ele>798.79998779297</ele>
        <time>2020-10-02T13:39:30.000Z</time>
      </trkpt>
      <trkpt lat="44.14032" lon="3.20593">
        <ele>795.59997558594</ele>
        <time>2020-10-02T13:39:31.000Z</time>
      </trkpt>
      <trkpt lat="44.14029" lon="3.20598">
        <ele>793.20001220703</ele>
        <time>2020-10-02T13:39:32.000Z</time>
      </trkpt>
      <trkpt lat="44.14026" lon="3.20603">
        <ele>791.40002441406</ele>
        <time>2020-10-02T13:39:33.000Z</time>
      </trkpt>
      <trkpt lat="44.14024" lon="3.20608">
        <ele>790</ele>
        <time>2020-10-02T13:39:34.000Z</time>
      </trkpt>
      <trkpt lat="44.14022" lon="3.20613">
        <ele>788.59997558594</ele>
        <time>2020-10-02T13:39:35.000Z</time>
      </trkpt>
      <trkpt lat="44.14018" lon="3.20623">
        <ele>786.79998779297</ele>
        <time>2020-10-02T13:39:37.000Z</time>
      </trkpt>
      <trkpt lat="44.14016" lon="3.20629">
        <ele>786.20001220703</ele>
        <time>2020-10-02T13:39:38.000Z</time>
      </trkpt>
      <trkpt lat="44.14015" lon="3.20633">
        <ele>784.79998779297</ele>
        <time>2020-10-02T13:39:39.000Z</time>
      </trkpt>
      <trkpt lat="44.14015" lon="3.20637">
        <ele>783.59997558594</ele>
        <time>2020-10-02T13:39:40.000Z</time>
      </trkpt>
      <trkpt lat="44.14013" lon="3.20643">
        <ele>782.40002441406</ele>
        <time>2020-10-02T13:39:41.000Z</time>
      </trkpt>
      <trkpt lat="44.14012" lon="3.20648">
        <ele>781.20001220703</ele>
        <time>2020-10-02T13:39:42.000Z</time>
      </trkpt>
      <trkpt lat="44.14011" lon="3.20654">
        <ele>780</ele>
        <time>2020-10-02T13:39:43.000Z</time>
      </trkpt>
      <trkpt lat="44.14011" lon="3.20659">
        <ele>779</ele>
        <time>2020-10-02T13:39:44.000Z</time>
      </trkpt>
      <trkpt lat="44.14011" lon="3.20663">
        <ele>777.79998779297</ele>
        <time>2020-10-02T13:39:45.000Z</time>
      </trkpt>
      <trkpt lat="44.14009" lon="3.20666">
        <ele>776.59997558594</ele>
        <time>2020-10-02T13:39:46.000Z</time>
      </trkpt>
      <trkpt lat="44.14007" lon="3.20669">
        <ele>775.20001220703</ele>
        <time>2020-10-02T13:39:47.000Z</time>
      </trkpt>
      <trkpt lat="44.14006" lon="3.20672">
        <ele>774.20001220703</ele>
        <time>2020-10-02T13:39:48.000Z</time>
      </trkpt>
      <trkpt lat="44.14005" lon="3.20675">
        <ele>773</ele>
        <time>2020-10-02T13:39:49.000Z</time>
      </trkpt>
      <trkpt lat="44.14004" lon="3.20679">
        <ele>771.79998779297</ele>
        <time>2020-10-02T13:39:50.000Z</time>
      </trkpt>
      <trkpt lat="44.14003" lon="3.20683">
        <ele>770.40002441406</ele>
        <time>2020-10-02T13:39:51.000Z</time>
      </trkpt>
      <trkpt lat="44.14002" lon="3.20687">
        <ele>768.79998779297</ele>
        <time>2020-10-02T13:39:52.000Z</time>
      </trkpt>
      <trkpt lat="44.14002" lon="3.20692">
        <ele>767.59997558594</ele>
        <time>2020-10-02T13:39:53.000Z</time>
      </trkpt>
      <trkpt lat="44.14002" lon="3.20696">
        <ele>765.20001220703</ele>
        <time>2020-10-02T13:39:54.000Z</time>
      </trkpt>
      <trkpt lat="44.14002" lon="3.20705">
        <ele>763.59997558594</ele>
        <time>2020-10-02T13:39:56.000Z</time>
      </trkpt>
      <trkpt lat="44.14003" lon="3.20713">
        <ele>762.59997558594</ele>
        <time>2020-10-02T13:39:58.000Z</time>
      </trkpt>
      <trkpt lat="44.14004" lon="3.20715">
        <ele>762</ele>
        <time>2020-10-02T13:39:59.000Z</time>
      </trkpt>
      <trkpt lat="44.14005" lon="3.20717">
        <ele>761.40002441406</ele>
        <time>2020-10-02T13:40:00.000Z</time>
      </trkpt>
      <trkpt lat="44.14006" lon="3.2072">
        <ele>759.59997558594</ele>
        <time>2020-10-02T13:40:02.000Z</time>
      </trkpt>
      <trkpt lat="44.14007" lon="3.20725">
        <ele>757.59997558594</ele>
        <time>2020-10-02T13:40:04.000Z</time>
      </trkpt>
      <trkpt lat="44.14008" lon="3.20728">
        <ele>756.40002441406</ele>
        <time>2020-10-02T13:40:05.000Z</time>
      </trkpt>
      <trkpt lat="44.14009" lon="3.2073">
        <ele>755.20001220703</ele>
        <time>2020-10-02T13:40:06.000Z</time>
      </trkpt>
      <trkpt lat="44.1401" lon="3.20731">
        <ele>754.20001220703</ele>
        <time>2020-10-02T13:40:07.000Z</time>
      </trkpt>
      <trkpt lat="44.14011" lon="3.20735">
        <ele>751.79998779297</ele>
        <time>2020-10-02T13:40:09.000Z</time>
      </trkpt>
      <trkpt lat="44.14011" lon="3.20739">
        <ele>750.79998779297</ele>
        <time>2020-10-02T13:40:10.000Z</time>
      </trkpt>
      <trkpt lat="44.14013" lon="3.20743">
        <ele>749.59997558594</ele>
        <time>2020-10-02T13:40:11.000Z</time>
      </trkpt>
      <trkpt lat="44.14014" lon="3.20747">
        <ele>748.40002441406</ele>
        <time>2020-10-02T13:40:12.000Z</time>
      </trkpt>
      <trkpt lat="44.14016" lon="3.20753">
        <ele>747.40002441406</ele>
        <time>2020-10-02T13:40:13.000Z</time>
      </trkpt>
      <trkpt lat="44.14018" lon="3.20759">
        <ele>746.40002441406</ele>
        <time>2020-10-02T13:40:14.000Z</time>
      </trkpt>
      <trkpt lat="44.1402" lon="3.20764">
        <ele>745.20001220703</ele>
        <time>2020-10-02T13:40:15.000Z</time>
      </trkpt>
      <trkpt lat="44.14023" lon="3.2077">
        <ele>744.20001220703</ele>
        <time>2020-10-02T13:40:16.000Z</time>
      </trkpt>
      <trkpt lat="44.14025" lon="3.20773">
        <ele>743</ele>
        <time>2020-10-02T13:40:17.000Z</time>
      </trkpt>
      <trkpt lat="44.14026" lon="3.20775">
        <ele>742</ele>
        <time>2020-10-02T13:40:18.000Z</time>
      </trkpt>
      <trkpt lat="44.14027" lon="3.20775">
        <ele>740.59997558594</ele>
        <time>2020-10-02T13:40:19.000Z</time>
      </trkpt>
      <trkpt lat="44.1403" lon="3.20777">
        <ele>739.40002441406</ele>
        <time>2020-10-02T13:40:20.000Z</time>
      </trkpt>
      <trkpt lat="44.14033" lon="3.20782">
        <ele>737.40002441406</ele>
        <time>2020-10-02T13:40:22.000Z</time>
      </trkpt>
      <trkpt lat="44.14034" lon="3.20786">
        <ele>734.79998779297</ele>
        <time>2020-10-02T13:40:23.000Z</time>
      </trkpt>
      <trkpt lat="44.14033" lon="3.20791">
        <ele>733.79998779297</ele>
        <time>2020-10-02T13:40:24.000Z</time>
      </trkpt>
      <trkpt lat="44.14033" lon="3.20801">
        <ele>732.20001220703</ele>
        <time>2020-10-02T13:40:26.000Z</time>
      </trkpt>
      <trkpt lat="44.14032" lon="3.20805">
        <ele>731.79998779297</ele>
        <time>2020-10-02T13:40:27.000Z</time>
      </trkpt>
      <trkpt lat="44.1403" lon="3.2081">
        <ele>731</ele>
        <time>2020-10-02T13:40:29.000Z</time>
      </trkpt>
      <trkpt lat="44.14032" lon="3.20813">
        <ele>730</ele>
        <time>2020-10-02T13:40:31.000Z</time>
      </trkpt>
      <trkpt lat="44.14034" lon="3.20816">
        <ele>729.59997558594</ele>
        <time>2020-10-02T13:40:32.000Z</time>
      </trkpt>
      <trkpt lat="44.14037" lon="3.20824">
        <ele>728.40002441406</ele>
        <time>2020-10-02T13:40:34.000Z</time>
      </trkpt>
      <trkpt lat="44.14038" lon="3.20828">
        <ele>727.59997558594</ele>
        <time>2020-10-02T13:40:35.000Z</time>
      </trkpt>
      <trkpt lat="44.14039" lon="3.20833">
        <ele>726.79998779297</ele>
        <time>2020-10-02T13:40:36.000Z</time>
      </trkpt>
      <trkpt lat="44.14039" lon="3.20841">
        <ele>725</ele>
        <time>2020-10-02T13:40:38.000Z</time>
      </trkpt>
      <trkpt lat="44.14039" lon="3.20845">
        <ele>724</ele>
        <time>2020-10-02T13:40:40.000Z</time>
      </trkpt>
      <trkpt lat="44.14038" lon="3.20849">
        <ele>723</ele>
        <time>2020-10-02T13:40:43.000Z</time>
      </trkpt>
      <trkpt lat="44.14038" lon="3.20849">
        <ele>722.20001220703</ele>
        <time>2020-10-02T13:40:45.000Z</time>
      </trkpt>
      <trkpt lat="44.14039" lon="3.2085">
        <ele>721.79998779297</ele>
        <time>2020-10-02T13:40:46.000Z</time>
      </trkpt>
      <trkpt lat="44.14034" lon="3.20852">
        <ele>721</ele>
        <time>2020-10-02T13:40:52.000Z</time>
      </trkpt>
      <trkpt lat="44.14032" lon="3.20853">
        <ele>721</ele>
        <time>2020-10-02T13:40:53.000Z</time>
      </trkpt>
      <trkpt lat="44.14025" lon="3.20868">
        <ele>720.79998779297</ele>
        <time>2020-10-02T13:40:57.000Z</time>
      </trkpt>
      <trkpt lat="44.14023" lon="3.20873">
        <ele>720.79998779297</ele>
        <time>2020-10-02T13:40:58.000Z</time>
      </trkpt>
      <trkpt lat="44.14008" lon="3.20896">
        <ele>719.79998779297</ele>
        <time>2020-10-02T13:41:03.000Z</time>
      </trkpt>
      <trkpt lat="44.13993" lon="3.20902">
        <ele>718.59997558594</ele>
        <time>2020-10-02T13:41:07.000Z</time>
      </trkpt>
      <trkpt lat="44.13991" lon="3.20904">
        <ele>717.20001220703</ele>
        <time>2020-10-02T13:41:11.000Z</time>
      </trkpt>
      <trkpt lat="44.13991" lon="3.20905">
        <ele>716.79998779297</ele>
        <time>2020-10-02T13:41:12.000Z</time>
      </trkpt>
      <trkpt lat="44.13989" lon="3.20907">
        <ele>715.79998779297</ele>
        <time>2020-10-02T13:41:17.000Z</time>
      </trkpt>
      <trkpt lat="44.13987" lon="3.20908">
        <ele>715.59997558594</ele>
        <time>2020-10-02T13:41:24.000Z</time>
      </trkpt>
      <trkpt lat="44.13978" lon="3.20914">
        <ele>715.59997558594</ele>
        <time>2020-10-02T13:41:34.000Z</time>
      </trkpt>
      <trkpt lat="44.13966" lon="3.20921">
        <ele>715.59997558594</ele>
        <time>2020-10-02T13:41:38.000Z</time>
      </trkpt>
      <trkpt lat="44.13946" lon="3.20952">
        <ele>714.79998779297</ele>
        <time>2020-10-02T13:41:44.000Z</time>
      </trkpt>
      <trkpt lat="44.13944" lon="3.20956">
        <ele>714.40002441406</ele>
        <time>2020-10-02T13:41:45.000Z</time>
      </trkpt>
      <trkpt lat="44.13937" lon="3.20963">
        <ele>712.79998779297</ele>
        <time>2020-10-02T13:41:48.000Z</time>
      </trkpt>
      <trkpt lat="44.1392" lon="3.20969">
        <ele>712.59997558594</ele>
        <time>2020-10-02T13:41:52.000Z</time>
      </trkpt>
      <trkpt lat="44.13903" lon="3.20988">
        <ele>712.40002441406</ele>
        <time>2020-10-02T13:41:56.000Z</time>
      </trkpt>
      <trkpt lat="44.13895" lon="3.20993">
        <ele>712.40002441406</ele>
        <time>2020-10-02T13:41:58.000Z</time>
      </trkpt>
      <trkpt lat="44.13892" lon="3.20992">
        <ele>712.40002441406</ele>
        <time>2020-10-02T13:41:59.000Z</time>
      </trkpt>
      <trkpt lat="44.13869" lon="3.20983">
        <ele>711.40002441406</ele>
        <time>2020-10-02T13:42:04.000Z</time>
      </trkpt>
      <trkpt lat="44.13866" lon="3.2098">
        <ele>710.59997558594</ele>
        <time>2020-10-02T13:42:05.000Z</time>
      </trkpt>
      <trkpt lat="44.13862" lon="3.20979">
        <ele>709.79998779297</ele>
        <time>2020-10-02T13:42:06.000Z</time>
      </trkpt>
      <trkpt lat="44.13853" lon="3.20982">
        <ele>708.20001220703</ele>
        <time>2020-10-02T13:42:08.000Z</time>
      </trkpt>
      <trkpt lat="44.13846" lon="3.20989">
        <ele>707</ele>
        <time>2020-10-02T13:42:10.000Z</time>
      </trkpt>
      <trkpt lat="44.13837" lon="3.20997">
        <ele>706</ele>
        <time>2020-10-02T13:42:12.000Z</time>
      </trkpt>
      <trkpt lat="44.13833" lon="3.21">
        <ele>705.40002441406</ele>
        <time>2020-10-02T13:42:13.000Z</time>
      </trkpt>
      <trkpt lat="44.13825" lon="3.21006">
        <ele>704.79998779297</ele>
        <time>2020-10-02T13:42:15.000Z</time>
      </trkpt>
      <trkpt lat="44.13824" lon="3.21007">
        <ele>704.59997558594</ele>
        <time>2020-10-02T13:42:16.000Z</time>
      </trkpt>
      <trkpt lat="44.13821" lon="3.21009">
        <ele>703.79998779297</ele>
        <time>2020-10-02T13:42:18.000Z</time>
      </trkpt>
      <trkpt lat="44.13819" lon="3.21012">
        <ele>703</ele>
        <time>2020-10-02T13:42:21.000Z</time>
      </trkpt>
      <trkpt lat="44.13819" lon="3.21012">
        <ele>702.40002441406</ele>
        <time>2020-10-02T13:42:22.000Z</time>
      </trkpt>
      <trkpt lat="44.13819" lon="3.21011">
        <ele>701.20001220703</ele>
        <time>2020-10-02T13:42:25.000Z</time>
      </trkpt>
      <trkpt lat="44.13819" lon="3.21014">
        <ele>700.40002441406</ele>
        <time>2020-10-02T13:42:36.000Z</time>
      </trkpt>
      <trkpt lat="44.13818" lon="3.21019">
        <ele>700</ele>
        <time>2020-10-02T13:42:49.000Z</time>
      </trkpt>
      <trkpt lat="44.13818" lon="3.21019">
        <ele>700</ele>
        <time>2020-10-02T13:42:50.000Z</time>
      </trkpt>
      <trkpt lat="44.1382" lon="3.21027">
        <ele>699.59997558594</ele>
        <time>2020-10-02T13:43:01.000Z</time>
      </trkpt>
      <trkpt lat="44.13813" lon="3.21031">
        <ele>700.20001220703</ele>
        <time>2020-10-02T13:43:12.000Z</time>
      </trkpt>
      <trkpt lat="44.13808" lon="3.21033">
        <ele>700.79998779297</ele>
        <time>2020-10-02T13:43:17.000Z</time>
      </trkpt>
      <trkpt lat="44.13803" lon="3.21039">
        <ele>701.20001220703</ele>
        <time>2020-10-02T13:43:25.000Z</time>
      </trkpt>
      <trkpt lat="44.13799" lon="3.21042">
        <ele>701.79998779297</ele>
        <time>2020-10-02T13:43:30.000Z</time>
      </trkpt>
      <trkpt lat="44.1379" lon="3.21048">
        <ele>702.20001220703</ele>
        <time>2020-10-02T13:43:40.000Z</time>
      </trkpt>
      <trkpt lat="44.13787" lon="3.2105">
        <ele>702.79998779297</ele>
        <time>2020-10-02T13:43:44.000Z</time>
      </trkpt>
      <trkpt lat="44.13783" lon="3.21053">
        <ele>703.59997558594</ele>
        <time>2020-10-02T13:43:48.000Z</time>
      </trkpt>
      <trkpt lat="44.1378" lon="3.21055">
        <ele>703.79998779297</ele>
        <time>2020-10-02T13:43:53.000Z</time>
      </trkpt>
      <trkpt lat="44.13773" lon="3.21057">
        <ele>704</ele>
        <time>2020-10-02T13:44:03.000Z</time>
      </trkpt>
      <trkpt lat="44.13768" lon="3.2107">
        <ele>704.40002441406</ele>
        <time>2020-10-02T13:44:15.000Z</time>
      </trkpt>
      <trkpt lat="44.1376" lon="3.21075">
        <ele>704.40002441406</ele>
        <time>2020-10-02T13:44:19.000Z</time>
      </trkpt>
      <trkpt lat="44.13752" lon="3.21086">
        <ele>703.59997558594</ele>
        <time>2020-10-02T13:44:25.000Z</time>
      </trkpt>
      <trkpt lat="44.13747" lon="3.21093">
        <ele>702.59997558594</ele>
        <time>2020-10-02T13:44:27.000Z</time>
      </trkpt>
      <trkpt lat="44.13742" lon="3.211">
        <ele>701.59997558594</ele>
        <time>2020-10-02T13:44:29.000Z</time>
      </trkpt>
      <trkpt lat="44.1374" lon="3.21103">
        <ele>701</ele>
        <time>2020-10-02T13:44:30.000Z</time>
      </trkpt>
      <trkpt lat="44.13739" lon="3.21105">
        <ele>700.40002441406</ele>
        <time>2020-10-02T13:44:33.000Z</time>
      </trkpt>
      <trkpt lat="44.13738" lon="3.21105">
        <ele>700</ele>
        <time>2020-10-02T13:44:34.000Z</time>
      </trkpt>
      <trkpt lat="44.13738" lon="3.21106">
        <ele>698.79998779297</ele>
        <time>2020-10-02T13:44:38.000Z</time>
      </trkpt>
      <trkpt lat="44.13737" lon="3.2111">
        <ele>698.40002441406</ele>
        <time>2020-10-02T13:44:42.000Z</time>
      </trkpt>
      <trkpt lat="44.13734" lon="3.21123">
        <ele>698</ele>
        <time>2020-10-02T13:44:55.000Z</time>
      </trkpt>
      <trkpt lat="44.13734" lon="3.21128">
        <ele>698</ele>
        <time>2020-10-02T13:45:07.000Z</time>
      </trkpt>
      <trkpt lat="44.13729" lon="3.21138">
        <ele>697.59997558594</ele>
        <time>2020-10-02T13:45:14.000Z</time>
      </trkpt>
      <trkpt lat="44.13724" lon="3.21144">
        <ele>696.79998779297</ele>
        <time>2020-10-02T13:45:17.000Z</time>
      </trkpt>
      <trkpt lat="44.13722" lon="3.21147">
        <ele>696.40002441406</ele>
        <time>2020-10-02T13:45:18.000Z</time>
      </trkpt>
      <trkpt lat="44.13717" lon="3.21154">
        <ele>694.79998779297</ele>
        <time>2020-10-02T13:45:21.000Z</time>
      </trkpt>
      <trkpt lat="44.13715" lon="3.21161">
        <ele>693.59997558594</ele>
        <time>2020-10-02T13:45:23.000Z</time>
      </trkpt>
      <trkpt lat="44.13714" lon="3.21164">
        <ele>692.59997558594</ele>
        <time>2020-10-02T13:45:24.000Z</time>
      </trkpt>
      <trkpt lat="44.13712" lon="3.21168">
        <ele>691.59997558594</ele>
        <time>2020-10-02T13:45:25.000Z</time>
      </trkpt>
      <trkpt lat="44.13708" lon="3.21177">
        <ele>689.79998779297</ele>
        <time>2020-10-02T13:45:27.000Z</time>
      </trkpt>
      <trkpt lat="44.13706" lon="3.21181">
        <ele>689</ele>
        <time>2020-10-02T13:45:28.000Z</time>
      </trkpt>
      <trkpt lat="44.13705" lon="3.21184">
        <ele>688.40002441406</ele>
        <time>2020-10-02T13:45:29.000Z</time>
      </trkpt>
      <trkpt lat="44.13703" lon="3.21188">
        <ele>686.40002441406</ele>
        <time>2020-10-02T13:45:31.000Z</time>
      </trkpt>
      <trkpt lat="44.137" lon="3.21194">
        <ele>684.79998779297</ele>
        <time>2020-10-02T13:45:33.000Z</time>
      </trkpt>
      <trkpt lat="44.13698" lon="3.21198">
        <ele>683.59997558594</ele>
        <time>2020-10-02T13:45:34.000Z</time>
      </trkpt>
      <trkpt lat="44.13697" lon="3.21202">
        <ele>681.40002441406</ele>
        <time>2020-10-02T13:45:35.000Z</time>
      </trkpt>
      <trkpt lat="44.13695" lon="3.21208">
        <ele>679.79998779297</ele>
        <time>2020-10-02T13:45:37.000Z</time>
      </trkpt>
      <trkpt lat="44.13693" lon="3.21216">
        <ele>678.59997558594</ele>
        <time>2020-10-02T13:45:40.000Z</time>
      </trkpt>
      <trkpt lat="44.13691" lon="3.21224">
        <ele>678</ele>
        <time>2020-10-02T13:45:42.000Z</time>
      </trkpt>
      <trkpt lat="44.13689" lon="3.21231">
        <ele>677.20001220703</ele>
        <time>2020-10-02T13:45:44.000Z</time>
      </trkpt>
      <trkpt lat="44.13687" lon="3.21239">
        <ele>676.40002441406</ele>
        <time>2020-10-02T13:45:48.000Z</time>
      </trkpt>
      <trkpt lat="44.13686" lon="3.21249">
        <ele>676.20001220703</ele>
        <time>2020-10-02T13:45:53.000Z</time>
      </trkpt>
      <trkpt lat="44.13686" lon="3.21252">
        <ele>675.79998779297</ele>
        <time>2020-10-02T13:45:56.000Z</time>
      </trkpt>
      <trkpt lat="44.13686" lon="3.21256">
        <ele>675.79998779297</ele>
        <time>2020-10-02T13:46:10.000Z</time>
      </trkpt>
      <trkpt lat="44.13686" lon="3.21254">
        <ele>675.59997558594</ele>
        <time>2020-10-02T13:46:28.000Z</time>
      </trkpt>
      <trkpt lat="44.13678" lon="3.21255">
        <ele>675.40002441406</ele>
        <time>2020-10-02T13:46:44.000Z</time>
      </trkpt>
      <trkpt lat="44.13675" lon="3.21256">
        <ele>675.20001220703</ele>
        <time>2020-10-02T13:46:58.000Z</time>
      </trkpt>
      <trkpt lat="44.1367" lon="3.21261">
        <ele>675.59997558594</ele>
        <time>2020-10-02T13:47:13.000Z</time>
      </trkpt>
      <trkpt lat="44.13668" lon="3.21265">
        <ele>675.59997558594</ele>
        <time>2020-10-02T13:47:26.000Z</time>
      </trkpt>
      <trkpt lat="44.1367" lon="3.21262">
        <ele>675.59997558594</ele>
        <time>2020-10-02T13:47:41.000Z</time>
      </trkpt>
      <trkpt lat="44.13671" lon="3.21263">
        <ele>675.40002441406</ele>
        <time>2020-10-02T13:47:55.000Z</time>
      </trkpt>
      <trkpt lat="44.13671" lon="3.21263">
        <ele>674.79998779297</ele>
        <time>2020-10-02T13:48:13.000Z</time>
      </trkpt>
      <trkpt lat="44.13672" lon="3.21263">
        <ele>674.79998779297</ele>
        <time>2020-10-02T13:48:36.000Z</time>
      </trkpt>
      <trkpt lat="44.13673" lon="3.21265">
        <ele>675</ele>
        <time>2020-10-02T13:48:48.000Z</time>
      </trkpt>
      <trkpt lat="44.13674" lon="3.21265">
        <ele>675.20001220703</ele>
        <time>2020-10-02T13:48:52.000Z</time>
      </trkpt>
      <trkpt lat="44.13674" lon="3.21266">
        <ele>674.59997558594</ele>
        <time>2020-10-02T13:49:09.000Z</time>
      </trkpt>
      <trkpt lat="44.13672" lon="3.21265">
        <ele>675</ele>
        <time>2020-10-02T13:49:28.000Z</time>
      </trkpt>
      <trkpt lat="44.13669" lon="3.21266">
        <ele>675.20001220703</ele>
        <time>2020-10-02T13:49:47.000Z</time>
      </trkpt>
      <trkpt lat="44.13671" lon="3.21267">
        <ele>675</ele>
        <time>2020-10-02T13:50:02.000Z</time>
      </trkpt>
      <trkpt lat="44.13671" lon="3.21263">
        <ele>675.20001220703</ele>
        <time>2020-10-02T13:50:19.000Z</time>
      </trkpt>
      <trkpt lat="44.1367" lon="3.21261">
        <ele>675.40002441406</ele>
        <time>2020-10-02T13:50:38.000Z</time>
      </trkpt>
      <trkpt lat="44.13669" lon="3.21267">
        <ele>675</ele>
        <time>2020-10-02T13:50:53.000Z</time>
      </trkpt>
      <trkpt lat="44.13666" lon="3.2127">
        <ele>674.79998779297</ele>
        <time>2020-10-02T13:50:55.000Z</time>
      </trkpt>
      <trkpt lat="44.13662" lon="3.21273">
        <ele>674.79998779297</ele>
        <time>2020-10-02T13:50:57.000Z</time>
      </trkpt>
      <trkpt lat="44.13656" lon="3.21278">
        <ele>674.59997558594</ele>
        <time>2020-10-02T13:51:00.000Z</time>
      </trkpt>
      <trkpt lat="44.1365" lon="3.21285">
        <ele>674</ele>
        <time>2020-10-02T13:51:03.000Z</time>
      </trkpt>
      <trkpt lat="44.13648" lon="3.2129">
        <ele>673</ele>
        <time>2020-10-02T13:51:05.000Z</time>
      </trkpt>
      <trkpt lat="44.13645" lon="3.21295">
        <ele>671.40002441406</ele>
        <time>2020-10-02T13:51:07.000Z</time>
      </trkpt>
      <trkpt lat="44.13642" lon="3.21302">
        <ele>670.40002441406</ele>
        <time>2020-10-02T13:51:09.000Z</time>
      </trkpt>
      <trkpt lat="44.1364" lon="3.21308">
        <ele>669.20001220703</ele>
        <time>2020-10-02T13:51:11.000Z</time>
      </trkpt>
      <trkpt lat="44.13638" lon="3.21313">
        <ele>668</ele>
        <time>2020-10-02T13:51:13.000Z</time>
      </trkpt>
      <trkpt lat="44.13637" lon="3.21315">
        <ele>667.79998779297</ele>
        <time>2020-10-02T13:51:14.000Z</time>
      </trkpt>
      <trkpt lat="44.13637" lon="3.21317">
        <ele>667</ele>
        <time>2020-10-02T13:51:16.000Z</time>
      </trkpt>
      <trkpt lat="44.13635" lon="3.21325">
        <ele>665.79998779297</ele>
        <time>2020-10-02T13:51:20.000Z</time>
      </trkpt>
      <trkpt lat="44.1363" lon="3.21345">
        <ele>665.40002441406</ele>
        <time>2020-10-02T13:51:26.000Z</time>
      </trkpt>
      <trkpt lat="44.13628" lon="3.21348">
        <ele>665.40002441406</ele>
        <time>2020-10-02T13:51:27.000Z</time>
      </trkpt>
      <trkpt lat="44.13617" lon="3.21361">
        <ele>665.20001220703</ele>
        <time>2020-10-02T13:51:33.000Z</time>
      </trkpt>
      <trkpt lat="44.13613" lon="3.21369">
        <ele>664.79998779297</ele>
        <time>2020-10-02T13:51:39.000Z</time>
      </trkpt>
      <trkpt lat="44.13613" lon="3.21369">
        <ele>664.59997558594</ele>
        <time>2020-10-02T13:51:40.000Z</time>
      </trkpt>
      <trkpt lat="44.13607" lon="3.21371">
        <ele>663.59997558594</ele>
        <time>2020-10-02T13:51:47.000Z</time>
      </trkpt>
      <trkpt lat="44.13606" lon="3.21372">
        <ele>663.40002441406</ele>
        <time>2020-10-02T13:51:48.000Z</time>
      </trkpt>
      <trkpt lat="44.13601" lon="3.21382">
        <ele>662.40002441406</ele>
        <time>2020-10-02T13:51:59.000Z</time>
      </trkpt>
      <trkpt lat="44.136" lon="3.21384">
        <ele>662.20001220703</ele>
        <time>2020-10-02T13:52:02.000Z</time>
      </trkpt>
      <trkpt lat="44.13595" lon="3.21391">
        <ele>661.59997558594</ele>
        <time>2020-10-02T13:52:09.000Z</time>
      </trkpt>
      <trkpt lat="44.1359" lon="3.21399">
        <ele>661.20001220703</ele>
        <time>2020-10-02T13:52:13.000Z</time>
      </trkpt>
      <trkpt lat="44.13585" lon="3.21408">
        <ele>660.59997558594</ele>
        <time>2020-10-02T13:52:17.000Z</time>
      </trkpt>
      <trkpt lat="44.13584" lon="3.21414">
        <ele>660.20001220703</ele>
        <time>2020-10-02T13:52:19.000Z</time>
      </trkpt>
      <trkpt lat="44.13581" lon="3.21427">
        <ele>659</ele>
        <time>2020-10-02T13:52:22.000Z</time>
      </trkpt>
      <trkpt lat="44.13581" lon="3.21452">
        <ele>657.79998779297</ele>
        <time>2020-10-02T13:52:26.000Z</time>
      </trkpt>
      <trkpt lat="44.13582" lon="3.21459">
        <ele>657.40002441406</ele>
        <time>2020-10-02T13:52:27.000Z</time>
      </trkpt>
      <trkpt lat="44.13584" lon="3.2147">
        <ele>656.59997558594</ele>
        <time>2020-10-02T13:52:29.000Z</time>
      </trkpt>
      <trkpt lat="44.13588" lon="3.21484">
        <ele>655.40002441406</ele>
        <time>2020-10-02T13:52:32.000Z</time>
      </trkpt>
      <trkpt lat="44.13592" lon="3.21499">
        <ele>654.40002441406</ele>
        <time>2020-10-02T13:52:35.000Z</time>
      </trkpt>
      <trkpt lat="44.13593" lon="3.2151">
        <ele>653.59997558594</ele>
        <time>2020-10-02T13:52:37.000Z</time>
      </trkpt>
      <trkpt lat="44.13592" lon="3.21519">
        <ele>653.20001220703</ele>
        <time>2020-10-02T13:52:39.000Z</time>
      </trkpt>
      <trkpt lat="44.1359" lon="3.21525">
        <ele>653.20001220703</ele>
        <time>2020-10-02T13:52:40.000Z</time>
      </trkpt>
      <trkpt lat="44.13588" lon="3.21528">
        <ele>652.79998779297</ele>
        <time>2020-10-02T13:52:41.000Z</time>
      </trkpt>
      <trkpt lat="44.13584" lon="3.21535">
        <ele>651.79998779297</ele>
        <time>2020-10-02T13:52:43.000Z</time>
      </trkpt>
      <trkpt lat="44.13582" lon="3.2154">
        <ele>651.59997558594</ele>
        <time>2020-10-02T13:52:44.000Z</time>
      </trkpt>
      <trkpt lat="44.13581" lon="3.21545">
        <ele>651.40002441406</ele>
        <time>2020-10-02T13:52:45.000Z</time>
      </trkpt>
      <trkpt lat="44.13578" lon="3.21564">
        <ele>650.59997558594</ele>
        <time>2020-10-02T13:52:48.000Z</time>
      </trkpt>
      <trkpt lat="44.13578" lon="3.21575">
        <ele>650.20001220703</ele>
        <time>2020-10-02T13:52:50.000Z</time>
      </trkpt>
      <trkpt lat="44.13579" lon="3.21584">
        <ele>648.40002441406</ele>
        <time>2020-10-02T13:52:52.000Z</time>
      </trkpt>
      <trkpt lat="44.1358" lon="3.21589">
        <ele>647.40002441406</ele>
        <time>2020-10-02T13:52:53.000Z</time>
      </trkpt>
      <trkpt lat="44.13582" lon="3.21598">
        <ele>646.20001220703</ele>
        <time>2020-10-02T13:52:55.000Z</time>
      </trkpt>
      <trkpt lat="44.13583" lon="3.21606">
        <ele>644.40002441406</ele>
        <time>2020-10-02T13:52:57.000Z</time>
      </trkpt>
      <trkpt lat="44.13586" lon="3.21616">
        <ele>643.40002441406</ele>
        <time>2020-10-02T13:52:59.000Z</time>
      </trkpt>
      <trkpt lat="44.13587" lon="3.21622">
        <ele>643</ele>
        <time>2020-10-02T13:53:00.000Z</time>
      </trkpt>
      <trkpt lat="44.13589" lon="3.21632">
        <ele>642.20001220703</ele>
        <time>2020-10-02T13:53:02.000Z</time>
      </trkpt>
      <trkpt lat="44.13589" lon="3.21635">
        <ele>641.79998779297</ele>
        <time>2020-10-02T13:53:03.000Z</time>
      </trkpt>
      <trkpt lat="44.13589" lon="3.21637">
        <ele>641</ele>
        <time>2020-10-02T13:53:04.000Z</time>
      </trkpt>
      <trkpt lat="44.13588" lon="3.2164">
        <ele>639.40002441406</ele>
        <time>2020-10-02T13:53:06.000Z</time>
      </trkpt>
      <trkpt lat="44.13588" lon="3.21641">
        <ele>637.79998779297</ele>
        <time>2020-10-02T13:53:08.000Z</time>
      </trkpt>
      <trkpt lat="44.13587" lon="3.21642">
        <ele>636.79998779297</ele>
        <time>2020-10-02T13:53:09.000Z</time>
      </trkpt>
      <trkpt lat="44.13587" lon="3.21643">
        <ele>635</ele>
        <time>2020-10-02T13:53:10.000Z</time>
      </trkpt>
      <trkpt lat="44.13587" lon="3.21645">
        <ele>634</ele>
        <time>2020-10-02T13:53:13.000Z</time>
      </trkpt>
      <trkpt lat="44.13586" lon="3.21646">
        <ele>633.59997558594</ele>
        <time>2020-10-02T13:53:23.000Z</time>
      </trkpt>
      <trkpt lat="44.13586" lon="3.21646">
        <ele>633.40002441406</ele>
        <time>2020-10-02T13:53:43.000Z</time>
      </trkpt>
      <trkpt lat="44.13586" lon="3.21646">
        <ele>633.40002441406</ele>
        <time>2020-10-02T13:54:04.000Z</time>
      </trkpt>
      <trkpt lat="44.13585" lon="3.21647">
        <ele>633.40002441406</ele>
        <time>2020-10-02T13:54:19.000Z</time>
      </trkpt>
      <trkpt lat="44.13585" lon="3.21648">
        <ele>633.40002441406</ele>
        <time>2020-10-02T13:54:34.000Z</time>
      </trkpt>
      <trkpt lat="44.13586" lon="3.21651">
        <ele>633.59997558594</ele>
        <time>2020-10-02T13:54:36.000Z</time>
      </trkpt>
      <trkpt lat="44.13591" lon="3.21658">
        <ele>633.59997558594</ele>
        <time>2020-10-02T13:54:39.000Z</time>
      </trkpt>
      <trkpt lat="44.13594" lon="3.21661">
        <ele>633.59997558594</ele>
        <time>2020-10-02T13:54:40.000Z</time>
      </trkpt>
      <trkpt lat="44.13598" lon="3.21664">
        <ele>633.40002441406</ele>
        <time>2020-10-02T13:54:41.000Z</time>
      </trkpt>
      <trkpt lat="44.13606" lon="3.21667">
        <ele>633.20001220703</ele>
        <time>2020-10-02T13:54:43.000Z</time>
      </trkpt>
      <trkpt lat="44.1361" lon="3.21669">
        <ele>633.20001220703</ele>
        <time>2020-10-02T13:54:44.000Z</time>
      </trkpt>
      <trkpt lat="44.13625" lon="3.21676">
        <ele>632</ele>
        <time>2020-10-02T13:54:47.000Z</time>
      </trkpt>
      <trkpt lat="44.13633" lon="3.21688">
        <ele>630.79998779297</ele>
        <time>2020-10-02T13:54:49.000Z</time>
      </trkpt>
      <trkpt lat="44.13636" lon="3.21692">
        <ele>630.20001220703</ele>
        <time>2020-10-02T13:54:50.000Z</time>
      </trkpt>
      <trkpt lat="44.13639" lon="3.21697">
        <ele>629.79998779297</ele>
        <time>2020-10-02T13:54:51.000Z</time>
      </trkpt>
      <trkpt lat="44.13644" lon="3.21702">
        <ele>628.59997558594</ele>
        <time>2020-10-02T13:54:53.000Z</time>
      </trkpt>
      <trkpt lat="44.13649" lon="3.21701">
        <ele>628</ele>
        <time>2020-10-02T13:54:54.000Z</time>
      </trkpt>
      <trkpt lat="44.13652" lon="3.21702">
        <ele>627.20001220703</ele>
        <time>2020-10-02T13:54:55.000Z</time>
      </trkpt>
      <trkpt lat="44.13659" lon="3.21703">
        <ele>625.59997558594</ele>
        <time>2020-10-02T13:54:57.000Z</time>
      </trkpt>
      <trkpt lat="44.13666" lon="3.21702">
        <ele>624</ele>
        <time>2020-10-02T13:54:59.000Z</time>
      </trkpt>
      <trkpt lat="44.13669" lon="3.21701">
        <ele>623</ele>
        <time>2020-10-02T13:55:00.000Z</time>
      </trkpt>
      <trkpt lat="44.13678" lon="3.217">
        <ele>622</ele>
        <time>2020-10-02T13:55:02.000Z</time>
      </trkpt>
      <trkpt lat="44.13688" lon="3.21702">
        <ele>621</ele>
        <time>2020-10-02T13:55:05.000Z</time>
      </trkpt>
      <trkpt lat="44.13692" lon="3.217">
        <ele>621</ele>
        <time>2020-10-02T13:55:07.000Z</time>
      </trkpt>
      <trkpt lat="44.13695" lon="3.21699">
        <ele>620.79998779297</ele>
        <time>2020-10-02T13:55:08.000Z</time>
      </trkpt>
      <trkpt lat="44.13695" lon="3.21702">
        <ele>620.79998779297</ele>
        <time>2020-10-02T13:55:09.000Z</time>
      </trkpt>
      <trkpt lat="44.13698" lon="3.21706">
        <ele>620.59997558594</ele>
        <time>2020-10-02T13:55:13.000Z</time>
      </trkpt>
      <trkpt lat="44.13701" lon="3.21705">
        <ele>619.59997558594</ele>
        <time>2020-10-02T13:55:15.000Z</time>
      </trkpt>
      <trkpt lat="44.13704" lon="3.21705">
        <ele>618.59997558594</ele>
        <time>2020-10-02T13:55:17.000Z</time>
      </trkpt>
      <trkpt lat="44.13706" lon="3.2171">
        <ele>617.40002441406</ele>
        <time>2020-10-02T13:55:19.000Z</time>
      </trkpt>
      <trkpt lat="44.13705" lon="3.21711">
        <ele>617</ele>
        <time>2020-10-02T13:55:20.000Z</time>
      </trkpt>
      <trkpt lat="44.13704" lon="3.21712">
        <ele>616.20001220703</ele>
        <time>2020-10-02T13:55:21.000Z</time>
      </trkpt>
      <trkpt lat="44.13702" lon="3.21716">
        <ele>614.79998779297</ele>
        <time>2020-10-02T13:55:23.000Z</time>
      </trkpt>
      <trkpt lat="44.13703" lon="3.21718">
        <ele>614.20001220703</ele>
        <time>2020-10-02T13:55:24.000Z</time>
      </trkpt>
      <trkpt lat="44.13705" lon="3.2172">
        <ele>613.59997558594</ele>
        <time>2020-10-02T13:55:25.000Z</time>
      </trkpt>
      <trkpt lat="44.13709" lon="3.21721">
        <ele>612.20001220703</ele>
        <time>2020-10-02T13:55:27.000Z</time>
      </trkpt>
      <trkpt lat="44.13711" lon="3.2172">
        <ele>611.40002441406</ele>
        <time>2020-10-02T13:55:28.000Z</time>
      </trkpt>
      <trkpt lat="44.13713" lon="3.21721">
        <ele>610</ele>
        <time>2020-10-02T13:55:29.000Z</time>
      </trkpt>
      <trkpt lat="44.13714" lon="3.21726">
        <ele>608.20001220703</ele>
        <time>2020-10-02T13:55:31.000Z</time>
      </trkpt>
      <trkpt lat="44.13716" lon="3.21727">
        <ele>605.40002441406</ele>
        <time>2020-10-02T13:55:33.000Z</time>
      </trkpt>
      <trkpt lat="44.13717" lon="3.21727">
        <ele>604.79998779297</ele>
        <time>2020-10-02T13:55:34.000Z</time>
      </trkpt>
      <trkpt lat="44.13717" lon="3.21727">
        <ele>603.79998779297</ele>
        <time>2020-10-02T13:55:35.000Z</time>
      </trkpt>
      <trkpt lat="44.13718" lon="3.21728">
        <ele>602</ele>
        <time>2020-10-02T13:55:37.000Z</time>
      </trkpt>
      <trkpt lat="44.1372" lon="3.21728">
        <ele>600.59997558594</ele>
        <time>2020-10-02T13:55:39.000Z</time>
      </trkpt>
      <trkpt lat="44.1372" lon="3.21728">
        <ele>599.59997558594</ele>
        <time>2020-10-02T13:55:41.000Z</time>
      </trkpt>
      <trkpt lat="44.13721" lon="3.2173">
        <ele>598.79998779297</ele>
        <time>2020-10-02T13:55:44.000Z</time>
      </trkpt>
      <trkpt lat="44.13721" lon="3.21732">
        <ele>598.40002441406</ele>
        <time>2020-10-02T13:55:46.000Z</time>
      </trkpt>
      <trkpt lat="44.13719" lon="3.21735">
        <ele>598.40002441406</ele>
        <time>2020-10-02T13:55:48.000Z</time>
      </trkpt>
      <trkpt lat="44.13715" lon="3.2174">
        <ele>598.20001220703</ele>
        <time>2020-10-02T13:55:51.000Z</time>
      </trkpt>
      <trkpt lat="44.13711" lon="3.21745">
        <ele>597.40002441406</ele>
        <time>2020-10-02T13:55:53.000Z</time>
      </trkpt>
      <trkpt lat="44.13704" lon="3.21754">
        <ele>596.20001220703</ele>
        <time>2020-10-02T13:55:56.000Z</time>
      </trkpt>
      <trkpt lat="44.13701" lon="3.21758">
        <ele>595</ele>
        <time>2020-10-02T13:55:58.000Z</time>
      </trkpt>
      <trkpt lat="44.137" lon="3.21761">
        <ele>593.59997558594</ele>
        <time>2020-10-02T13:56:00.000Z</time>
      </trkpt>
      <trkpt lat="44.137" lon="3.21762">
        <ele>591.40002441406</ele>
        <time>2020-10-02T13:56:01.000Z</time>
      </trkpt>
      <trkpt lat="44.137" lon="3.21763">
        <ele>590</ele>
        <time>2020-10-02T13:56:03.000Z</time>
      </trkpt>
      <trkpt lat="44.13698" lon="3.21762">
        <ele>589</ele>
        <time>2020-10-02T13:56:04.000Z</time>
      </trkpt>
      <trkpt lat="44.13696" lon="3.21763">
        <ele>587.79998779297</ele>
        <time>2020-10-02T13:56:05.000Z</time>
      </trkpt>
      <trkpt lat="44.13695" lon="3.21766">
        <ele>586.79998779297</ele>
        <time>2020-10-02T13:56:06.000Z</time>
      </trkpt>
      <trkpt lat="44.13693" lon="3.21769">
        <ele>585.40002441406</ele>
        <time>2020-10-02T13:56:08.000Z</time>
      </trkpt>
      <trkpt lat="44.13693" lon="3.2177">
        <ele>584.79998779297</ele>
        <time>2020-10-02T13:56:09.000Z</time>
      </trkpt>
      <trkpt lat="44.13693" lon="3.21772">
        <ele>584.20001220703</ele>
        <time>2020-10-02T13:56:11.000Z</time>
      </trkpt>
      <trkpt lat="44.13692" lon="3.21775">
        <ele>583</ele>
        <time>2020-10-02T13:56:15.000Z</time>
      </trkpt>
      <trkpt lat="44.13693" lon="3.21775">
        <ele>582</ele>
        <time>2020-10-02T13:56:25.000Z</time>
      </trkpt>
      <trkpt lat="44.13693" lon="3.21778">
        <ele>582.20001220703</ele>
        <time>2020-10-02T13:56:40.000Z</time>
      </trkpt>
      <trkpt lat="44.13691" lon="3.21781">
        <ele>582.40002441406</ele>
        <time>2020-10-02T13:56:53.000Z</time>
      </trkpt>
      <trkpt lat="44.13693" lon="3.21779">
        <ele>582.20001220703</ele>
        <time>2020-10-02T13:57:05.000Z</time>
      </trkpt>
      <trkpt lat="44.1369" lon="3.21778">
        <ele>582.40002441406</ele>
        <time>2020-10-02T13:57:17.000Z</time>
      </trkpt>
      <trkpt lat="44.13691" lon="3.21778">
        <ele>582.40002441406</ele>
        <time>2020-10-02T13:57:33.000Z</time>
      </trkpt>
      <trkpt lat="44.13693" lon="3.21778">
        <ele>582.40002441406</ele>
        <time>2020-10-02T13:57:47.000Z</time>
      </trkpt>
      <trkpt lat="44.13694" lon="3.21776">
        <ele>582.59997558594</ele>
        <time>2020-10-02T13:58:04.000Z</time>
      </trkpt>
      <trkpt lat="44.13694" lon="3.21775">
        <ele>582.59997558594</ele>
        <time>2020-10-02T13:58:17.000Z</time>
      </trkpt>
      <trkpt lat="44.13694" lon="3.21775">
        <ele>582.59997558594</ele>
        <time>2020-10-02T13:58:33.000Z</time>
      </trkpt>
      <trkpt lat="44.13697" lon="3.21775">
        <ele>582.79998779297</ele>
        <time>2020-10-02T13:58:44.000Z</time>
      </trkpt>
      <trkpt lat="44.13697" lon="3.21778">
        <ele>583</ele>
        <time>2020-10-02T13:58:58.000Z</time>
      </trkpt>
      <trkpt lat="44.13694" lon="3.21784">
        <ele>583</ele>
        <time>2020-10-02T13:59:11.000Z</time>
      </trkpt>
      <trkpt lat="44.13694" lon="3.21785">
        <ele>583.20001220703</ele>
        <time>2020-10-02T13:59:12.000Z</time>
      </trkpt>
      <trkpt lat="44.13693" lon="3.21787">
        <ele>583.20001220703</ele>
        <time>2020-10-02T13:59:24.000Z</time>
      </trkpt>
      <trkpt lat="44.13689" lon="3.21792">
        <ele>583</ele>
        <time>2020-10-02T13:59:31.000Z</time>
      </trkpt>
      <trkpt lat="44.13688" lon="3.21794">
        <ele>583</ele>
        <time>2020-10-02T13:59:32.000Z</time>
      </trkpt>
      <trkpt lat="44.13681" lon="3.21797">
        <ele>582.40002441406</ele>
        <time>2020-10-02T13:59:37.000Z</time>
      </trkpt>
      <trkpt lat="44.13679" lon="3.21797">
        <ele>582</ele>
        <time>2020-10-02T13:59:38.000Z</time>
      </trkpt>
      <trkpt lat="44.13677" lon="3.21797">
        <ele>581.20001220703</ele>
        <time>2020-10-02T13:59:39.000Z</time>
      </trkpt>
      <trkpt lat="44.13676" lon="3.21797">
        <ele>580.20001220703</ele>
        <time>2020-10-02T13:59:40.000Z</time>
      </trkpt>
      <trkpt lat="44.13675" lon="3.21797">
        <ele>579</ele>
        <time>2020-10-02T13:59:41.000Z</time>
      </trkpt>
      <trkpt lat="44.13675" lon="3.21798">
        <ele>577.79998779297</ele>
        <time>2020-10-02T13:59:42.000Z</time>
      </trkpt>
      <trkpt lat="44.13675" lon="3.21798">
        <ele>576.59997558594</ele>
        <time>2020-10-02T13:59:43.000Z</time>
      </trkpt>
      <trkpt lat="44.13676" lon="3.21799">
        <ele>575.20001220703</ele>
        <time>2020-10-02T13:59:45.000Z</time>
      </trkpt>
      <trkpt lat="44.13676" lon="3.218">
        <ele>573.79998779297</ele>
        <time>2020-10-02T13:59:47.000Z</time>
      </trkpt>
      <trkpt lat="44.13677" lon="3.218">
        <ele>572.20001220703</ele>
        <time>2020-10-02T13:59:49.000Z</time>
      </trkpt>
      <trkpt lat="44.13676" lon="3.21801">
        <ele>571.79998779297</ele>
        <time>2020-10-02T13:59:51.000Z</time>
      </trkpt>
      <trkpt lat="44.13679" lon="3.21811">
        <ele>571.40002441406</ele>
        <time>2020-10-02T13:59:59.000Z</time>
      </trkpt>
      <trkpt lat="44.13681" lon="3.21814">
        <ele>571.20001220703</ele>
        <time>2020-10-02T14:00:02.000Z</time>
      </trkpt>
      <trkpt lat="44.13683" lon="3.21817">
        <ele>569.40002441406</ele>
        <time>2020-10-02T14:00:05.000Z</time>
      </trkpt>
      <trkpt lat="44.13684" lon="3.21819">
        <ele>568</ele>
        <time>2020-10-02T14:00:07.000Z</time>
      </trkpt>
      <trkpt lat="44.13685" lon="3.21819">
        <ele>566.40002441406</ele>
        <time>2020-10-02T14:00:09.000Z</time>
      </trkpt>
      <trkpt lat="44.13685" lon="3.2182">
        <ele>565.59997558594</ele>
        <time>2020-10-02T14:00:10.000Z</time>
      </trkpt>
      <trkpt lat="44.13685" lon="3.2182">
        <ele>565</ele>
        <time>2020-10-02T14:00:11.000Z</time>
      </trkpt>
      <trkpt lat="44.13684" lon="3.21819">
        <ele>564</ele>
        <time>2020-10-02T14:00:22.000Z</time>
      </trkpt>
      <trkpt lat="44.13676" lon="3.21812">
        <ele>564</ele>
        <time>2020-10-02T14:00:28.000Z</time>
      </trkpt>
      <trkpt lat="44.13675" lon="3.21811">
        <ele>563.79998779297</ele>
        <time>2020-10-02T14:00:31.000Z</time>
      </trkpt>
      <trkpt lat="44.13676" lon="3.21809">
        <ele>563.59997558594</ele>
        <time>2020-10-02T14:00:33.000Z</time>
      </trkpt>
      <trkpt lat="44.13676" lon="3.21803">
        <ele>563.40002441406</ele>
        <time>2020-10-02T14:00:41.000Z</time>
      </trkpt>
      <trkpt lat="44.13674" lon="3.21803">
        <ele>563.40002441406</ele>
        <time>2020-10-02T14:00:48.000Z</time>
      </trkpt>
      <trkpt lat="44.13673" lon="3.21804">
        <ele>563.20001220703</ele>
        <time>2020-10-02T14:00:56.000Z</time>
      </trkpt>
      <trkpt lat="44.13673" lon="3.21805">
        <ele>563.40002441406</ele>
        <time>2020-10-02T14:01:04.000Z</time>
      </trkpt>
      <trkpt lat="44.13674" lon="3.21802">
        <ele>563.40002441406</ele>
        <time>2020-10-02T14:01:12.000Z</time>
      </trkpt>
      <trkpt lat="44.13674" lon="3.21793">
        <ele>563.59997558594</ele>
        <time>2020-10-02T14:01:21.000Z</time>
      </trkpt>
      <trkpt lat="44.13669" lon="3.21796">
        <ele>563.40002441406</ele>
        <time>2020-10-02T14:01:30.000Z</time>
      </trkpt>
      <trkpt lat="44.13668" lon="3.21802">
        <ele>563.40002441406</ele>
        <time>2020-10-02T14:01:36.000Z</time>
      </trkpt>
      <trkpt lat="44.13668" lon="3.21805">
        <ele>563.40002441406</ele>
        <time>2020-10-02T14:01:44.000Z</time>
      </trkpt>
      <trkpt lat="44.13667" lon="3.21809">
        <ele>563.59997558594</ele>
        <time>2020-10-02T14:01:50.000Z</time>
      </trkpt>
      <trkpt lat="44.13669" lon="3.21806">
        <ele>563.59997558594</ele>
        <time>2020-10-02T14:01:58.000Z</time>
      </trkpt>
      <trkpt lat="44.13668" lon="3.21806">
        <ele>564</ele>
        <time>2020-10-02T14:02:07.000Z</time>
      </trkpt>
      <trkpt lat="44.13666" lon="3.21811">
        <ele>564</ele>
        <time>2020-10-02T14:02:16.000Z</time>
      </trkpt>
      <trkpt lat="44.13666" lon="3.21816">
        <ele>564</ele>
        <time>2020-10-02T14:02:23.000Z</time>
      </trkpt>
      <trkpt lat="44.13666" lon="3.21818">
        <ele>563.79998779297</ele>
        <time>2020-10-02T14:02:31.000Z</time>
      </trkpt>
      <trkpt lat="44.13667" lon="3.21817">
        <ele>563.79998779297</ele>
        <time>2020-10-02T14:02:38.000Z</time>
      </trkpt>
      <trkpt lat="44.13668" lon="3.21817">
        <ele>563.79998779297</ele>
        <time>2020-10-02T14:02:45.000Z</time>
      </trkpt>
      <trkpt lat="44.13669" lon="3.21815">
        <ele>563.79998779297</ele>
        <time>2020-10-02T14:02:54.000Z</time>
      </trkpt>
      <trkpt lat="44.1367" lon="3.21813">
        <ele>563.79998779297</ele>
        <time>2020-10-02T14:03:03.000Z</time>
      </trkpt>
      <trkpt lat="44.1367" lon="3.21812">
        <ele>563.79998779297</ele>
        <time>2020-10-02T14:03:09.000Z</time>
      </trkpt>
      <trkpt lat="44.13668" lon="3.21817">
        <ele>563.59997558594</ele>
        <time>2020-10-02T14:03:17.000Z</time>
      </trkpt>
      <trkpt lat="44.13668" lon="3.21814">
        <ele>563.59997558594</ele>
        <time>2020-10-02T14:03:24.000Z</time>
      </trkpt>
      <trkpt lat="44.1367" lon="3.21811">
        <ele>563.20001220703</ele>
        <time>2020-10-02T14:03:32.000Z</time>
      </trkpt>
      <trkpt lat="44.1367" lon="3.21809">
        <ele>563.40002441406</ele>
        <time>2020-10-02T14:03:40.000Z</time>
      </trkpt>
      <trkpt lat="44.13672" lon="3.21808">
        <ele>563.40002441406</ele>
        <time>2020-10-02T14:03:48.000Z</time>
      </trkpt>
      <trkpt lat="44.13671" lon="3.21815">
        <ele>563.40002441406</ele>
        <time>2020-10-02T14:03:57.000Z</time>
      </trkpt>
      <trkpt lat="44.13672" lon="3.21812">
        <ele>563.20001220703</ele>
        <time>2020-10-02T14:04:06.000Z</time>
      </trkpt>
      <trkpt lat="44.13674" lon="3.2181">
        <ele>563.40002441406</ele>
        <time>2020-10-02T14:04:16.000Z</time>
      </trkpt>
      <trkpt lat="44.13674" lon="3.21812">
        <ele>563.59997558594</ele>
        <time>2020-10-02T14:04:24.000Z</time>
      </trkpt>
      <trkpt lat="44.13674" lon="3.21814">
        <ele>563.40002441406</ele>
        <time>2020-10-02T14:04:34.000Z</time>
      </trkpt>
      <trkpt lat="44.13675" lon="3.21813">
        <ele>563.40002441406</ele>
        <time>2020-10-02T14:04:44.000Z</time>
      </trkpt>
      <trkpt lat="44.13674" lon="3.21814">
        <ele>563.40002441406</ele>
        <time>2020-10-02T14:04:51.000Z</time>
      </trkpt>
      <trkpt lat="44.13673" lon="3.21815">
        <ele>563.40002441406</ele>
        <time>2020-10-02T14:04:58.000Z</time>
      </trkpt>
      <trkpt lat="44.13673" lon="3.21815">
        <ele>563.40002441406</ele>
        <time>2020-10-02T14:05:07.000Z</time>
      </trkpt>
      <trkpt lat="44.13672" lon="3.21817">
        <ele>563.40002441406</ele>
        <time>2020-10-02T14:05:15.000Z</time>
      </trkpt>
      <trkpt lat="44.13672" lon="3.21814">
        <ele>563.20001220703</ele>
        <time>2020-10-02T14:05:25.000Z</time>
      </trkpt>
      <trkpt lat="44.13671" lon="3.21816">
        <ele>563.40002441406</ele>
        <time>2020-10-02T14:05:33.000Z</time>
      </trkpt>
      <trkpt lat="44.13672" lon="3.21813">
        <ele>563</ele>
        <time>2020-10-02T14:05:41.000Z</time>
      </trkpt>
      <trkpt lat="44.13673" lon="3.21813">
        <ele>563.20001220703</ele>
        <time>2020-10-02T14:05:51.000Z</time>
      </trkpt>
      <trkpt lat="44.13673" lon="3.21814">
        <ele>563.20001220703</ele>
        <time>2020-10-02T14:05:52.000Z</time>
      </trkpt>
      <trkpt lat="44.13675" lon="3.21819">
        <ele>563.40002441406</ele>
        <time>2020-10-02T14:06:02.000Z</time>
      </trkpt>
      <trkpt lat="44.13676" lon="3.21818">
        <ele>563.40002441406</ele>
        <time>2020-10-02T14:06:11.000Z</time>
      </trkpt>
      <trkpt lat="44.13675" lon="3.2182">
        <ele>563.40002441406</ele>
        <time>2020-10-02T14:06:18.000Z</time>
      </trkpt>
      <trkpt lat="44.13674" lon="3.2182">
        <ele>563.40002441406</ele>
        <time>2020-10-02T14:06:21.000Z</time>
      </trkpt>
      <trkpt lat="44.13674" lon="3.21817">
        <ele>563</ele>
        <time>2020-10-02T14:06:30.000Z</time>
      </trkpt>
      <trkpt lat="44.13673" lon="3.21815">
        <ele>563</ele>
        <time>2020-10-02T14:06:38.000Z</time>
      </trkpt>
      <trkpt lat="44.1367" lon="3.21819">
        <ele>563</ele>
        <time>2020-10-02T14:06:45.000Z</time>
      </trkpt>
      <trkpt lat="44.13669" lon="3.21819">
        <ele>563</ele>
        <time>2020-10-02T14:06:46.000Z</time>
      </trkpt>
      <trkpt lat="44.13657" lon="3.2182">
        <ele>563.20001220703</ele>
        <time>2020-10-02T14:06:50.000Z</time>
      </trkpt>
      <trkpt lat="44.13649" lon="3.21818">
        <ele>563</ele>
        <time>2020-10-02T14:06:53.000Z</time>
      </trkpt>
      <trkpt lat="44.13648" lon="3.21816">
        <ele>563</ele>
        <time>2020-10-02T14:06:54.000Z</time>
      </trkpt>
      <trkpt lat="44.13645" lon="3.21812">
        <ele>562.59997558594</ele>
        <time>2020-10-02T14:06:57.000Z</time>
      </trkpt>
      <trkpt lat="44.13644" lon="3.2181">
        <ele>562</ele>
        <time>2020-10-02T14:06:59.000Z</time>
      </trkpt>
      <trkpt lat="44.13634" lon="3.21806">
        <ele>561.40002441406</ele>
        <time>2020-10-02T14:07:05.000Z</time>
      </trkpt>
      <trkpt lat="44.13632" lon="3.21806">
        <ele>561.20001220703</ele>
        <time>2020-10-02T14:07:06.000Z</time>
      </trkpt>
      <trkpt lat="44.13626" lon="3.21804">
        <ele>560.20001220703</ele>
        <time>2020-10-02T14:07:09.000Z</time>
      </trkpt>
      <trkpt lat="44.13623" lon="3.21803">
        <ele>559.40002441406</ele>
        <time>2020-10-02T14:07:11.000Z</time>
      </trkpt>
      <trkpt lat="44.13622" lon="3.21803">
        <ele>558.79998779297</ele>
        <time>2020-10-02T14:07:12.000Z</time>
      </trkpt>
      <trkpt lat="44.13621" lon="3.21805">
        <ele>558.40002441406</ele>
        <time>2020-10-02T14:07:13.000Z</time>
      </trkpt>
      <trkpt lat="44.13617" lon="3.21808">
        <ele>557.40002441406</ele>
        <time>2020-10-02T14:07:15.000Z</time>
      </trkpt>
      <trkpt lat="44.13616" lon="3.2181">
        <ele>556.59997558594</ele>
        <time>2020-10-02T14:07:16.000Z</time>
      </trkpt>
      <trkpt lat="44.13616" lon="3.21811">
        <ele>556.40002441406</ele>
        <time>2020-10-02T14:07:17.000Z</time>
      </trkpt>
      <trkpt lat="44.13614" lon="3.2181">
        <ele>556</ele>
        <time>2020-10-02T14:07:18.000Z</time>
      </trkpt>
      <trkpt lat="44.13611" lon="3.21806">
        <ele>555.59997558594</ele>
        <time>2020-10-02T14:07:20.000Z</time>
      </trkpt>
      <trkpt lat="44.13605" lon="3.21804">
        <ele>555</ele>
        <time>2020-10-02T14:07:23.000Z</time>
      </trkpt>
      <trkpt lat="44.13598" lon="3.21799">
        <ele>554.79998779297</ele>
        <time>2020-10-02T14:07:26.000Z</time>
      </trkpt>
      <trkpt lat="44.13586" lon="3.21789">
        <ele>554.59997558594</ele>
        <time>2020-10-02T14:07:32.000Z</time>
      </trkpt>
      <trkpt lat="44.13575" lon="3.21785">
        <ele>554.40002441406</ele>
        <time>2020-10-02T14:07:37.000Z</time>
      </trkpt>
      <trkpt lat="44.13571" lon="3.21787">
        <ele>554.40002441406</ele>
        <time>2020-10-02T14:07:38.000Z</time>
      </trkpt>
      <trkpt lat="44.13559" lon="3.21799">
        <ele>554.20001220703</ele>
        <time>2020-10-02T14:07:41.000Z</time>
      </trkpt>
      <trkpt lat="44.13548" lon="3.21808">
        <ele>554.20001220703</ele>
        <time>2020-10-02T14:07:44.000Z</time>
      </trkpt>
      <trkpt lat="44.13544" lon="3.21809">
        <ele>553.79998779297</ele>
        <time>2020-10-02T14:07:46.000Z</time>
      </trkpt>
      <trkpt lat="44.13542" lon="3.2181">
        <ele>553.79998779297</ele>
        <time>2020-10-02T14:07:47.000Z</time>
      </trkpt>
      <trkpt lat="44.13535" lon="3.21808">
        <ele>553.79998779297</ele>
        <time>2020-10-02T14:07:53.000Z</time>
      </trkpt>
      <trkpt lat="44.13527" lon="3.21808">
        <ele>553.59997558594</ele>
        <time>2020-10-02T14:08:00.000Z</time>
      </trkpt>
      <trkpt lat="44.13521" lon="3.21808">
        <ele>553.40002441406</ele>
        <time>2020-10-02T14:08:02.000Z</time>
      </trkpt>
      <trkpt lat="44.13501" lon="3.21807">
        <ele>553.20001220703</ele>
        <time>2020-10-02T14:08:06.000Z</time>
      </trkpt>
      <trkpt lat="44.13474" lon="3.21805">
        <ele>552.79998779297</ele>
        <time>2020-10-02T14:08:10.000Z</time>
      </trkpt>
      <trkpt lat="44.13454" lon="3.21817">
        <ele>551.79998779297</ele>
        <time>2020-10-02T14:08:13.000Z</time>
      </trkpt>
      <trkpt lat="44.13449" lon="3.2182">
        <ele>550.59997558594</ele>
        <time>2020-10-02T14:08:14.000Z</time>
      </trkpt>
      <trkpt lat="44.13444" lon="3.21823">
        <ele>549.40002441406</ele>
        <time>2020-10-02T14:08:15.000Z</time>
      </trkpt>
      <trkpt lat="44.13441" lon="3.21826">
        <ele>547.79998779297</ele>
        <time>2020-10-02T14:08:16.000Z</time>
      </trkpt>
      <trkpt lat="44.13438" lon="3.21828">
        <ele>546.79998779297</ele>
        <time>2020-10-02T14:08:17.000Z</time>
      </trkpt>
      <trkpt lat="44.13437" lon="3.21829">
        <ele>545.40002441406</ele>
        <time>2020-10-02T14:08:18.000Z</time>
      </trkpt>
      <trkpt lat="44.13438" lon="3.21828">
        <ele>544.40002441406</ele>
        <time>2020-10-02T14:08:19.000Z</time>
      </trkpt>
      <trkpt lat="44.13438" lon="3.21829">
        <ele>543.40002441406</ele>
        <time>2020-10-02T14:08:20.000Z</time>
      </trkpt>
      <trkpt lat="44.13439" lon="3.21829">
        <ele>542.40002441406</ele>
        <time>2020-10-02T14:08:21.000Z</time>
      </trkpt>
      <trkpt lat="44.13439" lon="3.21829">
        <ele>542</ele>
        <time>2020-10-02T14:08:22.000Z</time>
      </trkpt>
      <trkpt lat="44.13439" lon="3.21829">
        <ele>540.40002441406</ele>
        <time>2020-10-02T14:08:24.000Z</time>
      </trkpt>
      <trkpt lat="44.13439" lon="3.21829">
        <ele>539.20001220703</ele>
        <time>2020-10-02T14:08:27.000Z</time>
      </trkpt>
      <trkpt lat="44.13438" lon="3.21829">
        <ele>538.79998779297</ele>
        <time>2020-10-02T14:08:36.000Z</time>
      </trkpt>
      <trkpt lat="44.13433" lon="3.21834">
        <ele>538.79998779297</ele>
        <time>2020-10-02T14:08:46.000Z</time>
      </trkpt>
      <trkpt lat="44.13422" lon="3.21841">
        <ele>539</ele>
        <time>2020-10-02T14:08:52.000Z</time>
      </trkpt>
      <trkpt lat="44.13417" lon="3.21851">
        <ele>540.20001220703</ele>
        <time>2020-10-02T14:08:57.000Z</time>
      </trkpt>
      <trkpt lat="44.13416" lon="3.21852">
        <ele>540.20001220703</ele>
        <time>2020-10-02T14:08:58.000Z</time>
      </trkpt>
      <trkpt lat="44.13416" lon="3.21855">
        <ele>541.40002441406</ele>
        <time>2020-10-02T14:09:02.000Z</time>
      </trkpt>
      <trkpt lat="44.13416" lon="3.21857">
        <ele>542.20001220703</ele>
        <time>2020-10-02T14:09:05.000Z</time>
      </trkpt>
      <trkpt lat="44.13417" lon="3.21856">
        <ele>542.40002441406</ele>
        <time>2020-10-02T14:09:07.000Z</time>
      </trkpt>
      <trkpt lat="44.13416" lon="3.21852">
        <ele>542.20001220703</ele>
        <time>2020-10-02T14:09:18.000Z</time>
      </trkpt>
      <trkpt lat="44.13417" lon="3.2185">
        <ele>541.79998779297</ele>
        <time>2020-10-02T14:09:31.000Z</time>
      </trkpt>
      <trkpt lat="44.1342" lon="3.21848">
        <ele>541.79998779297</ele>
        <time>2020-10-02T14:09:32.000Z</time>
      </trkpt>
      <trkpt lat="44.13425" lon="3.21843">
        <ele>541.79998779297</ele>
        <time>2020-10-02T14:09:34.000Z</time>
      </trkpt>
      <trkpt lat="44.13435" lon="3.21834">
        <ele>541.59997558594</ele>
        <time>2020-10-02T14:09:38.000Z</time>
      </trkpt>
      <trkpt lat="44.13439" lon="3.2183">
        <ele>541</ele>
        <time>2020-10-02T14:09:40.000Z</time>
      </trkpt>
      <trkpt lat="44.13442" lon="3.21828">
        <ele>540.59997558594</ele>
        <time>2020-10-02T14:09:42.000Z</time>
      </trkpt>
      <trkpt lat="44.13443" lon="3.21828">
        <ele>540</ele>
        <time>2020-10-02T14:09:45.000Z</time>
      </trkpt>
      <trkpt lat="44.13444" lon="3.21827">
        <ele>538.79998779297</ele>
        <time>2020-10-02T14:09:48.000Z</time>
      </trkpt>
      <trkpt lat="44.13444" lon="3.21828">
        <ele>538.40002441406</ele>
        <time>2020-10-02T14:10:01.000Z</time>
      </trkpt>
      <trkpt lat="44.13444" lon="3.21823">
        <ele>538.20001220703</ele>
        <time>2020-10-02T14:10:16.000Z</time>
      </trkpt>
      <trkpt lat="44.13441" lon="3.21818">
        <ele>537.79998779297</ele>
        <time>2020-10-02T14:10:23.000Z</time>
      </trkpt>
      <trkpt lat="44.1344" lon="3.2182">
        <ele>537.79998779297</ele>
        <time>2020-10-02T14:10:24.000Z</time>
      </trkpt>
      <trkpt lat="44.13438" lon="3.21821">
        <ele>537.79998779297</ele>
        <time>2020-10-02T14:10:25.000Z</time>
      </trkpt>
      <trkpt lat="44.13438" lon="3.21823">
        <ele>537</ele>
        <time>2020-10-02T14:10:28.000Z</time>
      </trkpt>
      <trkpt lat="44.13438" lon="3.21824">
        <ele>536.59997558594</ele>
        <time>2020-10-02T14:10:29.000Z</time>
      </trkpt>
      <trkpt lat="44.13437" lon="3.21825">
        <ele>534.79998779297</ele>
        <time>2020-10-02T14:10:31.000Z</time>
      </trkpt>
      <trkpt lat="44.13436" lon="3.21824">
        <ele>534.20001220703</ele>
        <time>2020-10-02T14:10:32.000Z</time>
      </trkpt>
      <trkpt lat="44.13433" lon="3.21824">
        <ele>533.59997558594</ele>
        <time>2020-10-02T14:10:34.000Z</time>
      </trkpt>
      <trkpt lat="44.13423" lon="3.21825">
        <ele>533.20001220703</ele>
        <time>2020-10-02T14:10:38.000Z</time>
      </trkpt>
      <trkpt lat="44.13409" lon="3.21828">
        <ele>533.20001220703</ele>
        <time>2020-10-02T14:10:43.000Z</time>
      </trkpt>
      <trkpt lat="44.13403" lon="3.21829">
        <ele>533</ele>
        <time>2020-10-02T14:10:46.000Z</time>
      </trkpt>
      <trkpt lat="44.13399" lon="3.21831">
        <ele>532.79998779297</ele>
        <time>2020-10-02T14:10:48.000Z</time>
      </trkpt>
      <trkpt lat="44.13396" lon="3.2183">
        <ele>532.40002441406</ele>
        <time>2020-10-02T14:10:49.000Z</time>
      </trkpt>
      <trkpt lat="44.13388" lon="3.21834">
        <ele>530.79998779297</ele>
        <time>2020-10-02T14:10:52.000Z</time>
      </trkpt>
      <trkpt lat="44.13385" lon="3.21835">
        <ele>530.40002441406</ele>
        <time>2020-10-02T14:10:53.000Z</time>
      </trkpt>
      <trkpt lat="44.13383" lon="3.21835">
        <ele>529.79998779297</ele>
        <time>2020-10-02T14:10:54.000Z</time>
      </trkpt>
      <trkpt lat="44.13379" lon="3.21836">
        <ele>527.40002441406</ele>
        <time>2020-10-02T14:10:56.000Z</time>
      </trkpt>
      <trkpt lat="44.13377" lon="3.21836">
        <ele>526.20001220703</ele>
        <time>2020-10-02T14:10:57.000Z</time>
      </trkpt>
      <trkpt lat="44.13376" lon="3.21837">
        <ele>524.79998779297</ele>
        <time>2020-10-02T14:10:59.000Z</time>
      </trkpt>
      <trkpt lat="44.13377" lon="3.21839">
        <ele>523.59997558594</ele>
        <time>2020-10-02T14:11:02.000Z</time>
      </trkpt>
      <trkpt lat="44.13377" lon="3.21841">
        <ele>521.79998779297</ele>
        <time>2020-10-02T14:11:06.000Z</time>
      </trkpt>
      <trkpt lat="44.13377" lon="3.21841">
        <ele>520.79998779297</ele>
        <time>2020-10-02T14:11:09.000Z</time>
      </trkpt>
      <trkpt lat="44.13377" lon="3.21842">
        <ele>520.59997558594</ele>
        <time>2020-10-02T14:11:17.000Z</time>
      </trkpt>
      <trkpt lat="44.13372" lon="3.21847">
        <ele>520.20001220703</ele>
        <time>2020-10-02T14:11:26.000Z</time>
      </trkpt>
      <trkpt lat="44.13369" lon="3.21848">
        <ele>519.59997558594</ele>
        <time>2020-10-02T14:11:31.000Z</time>
      </trkpt>
      <trkpt lat="44.13368" lon="3.21849">
        <ele>519</ele>
        <time>2020-10-02T14:11:32.000Z</time>
      </trkpt>
      <trkpt lat="44.13364" lon="3.21848">
        <ele>518.20001220703</ele>
        <time>2020-10-02T14:11:34.000Z</time>
      </trkpt>
      <trkpt lat="44.13359" lon="3.21846">
        <ele>517.79998779297</ele>
        <time>2020-10-02T14:11:37.000Z</time>
      </trkpt>
      <trkpt lat="44.13358" lon="3.21848">
        <ele>517.59997558594</ele>
        <time>2020-10-02T14:11:39.000Z</time>
      </trkpt>
      <trkpt lat="44.13356" lon="3.21853">
        <ele>516.59997558594</ele>
        <time>2020-10-02T14:11:41.000Z</time>
      </trkpt>
      <trkpt lat="44.13354" lon="3.21859">
        <ele>514.79998779297</ele>
        <time>2020-10-02T14:11:43.000Z</time>
      </trkpt>
      <trkpt lat="44.13353" lon="3.21861">
        <ele>513.79998779297</ele>
        <time>2020-10-02T14:11:44.000Z</time>
      </trkpt>
      <trkpt lat="44.13353" lon="3.21864">
        <ele>513.20001220703</ele>
        <time>2020-10-02T14:11:45.000Z</time>
      </trkpt>
      <trkpt lat="44.13352" lon="3.21866">
        <ele>512.20001220703</ele>
        <time>2020-10-02T14:11:46.000Z</time>
      </trkpt>
      <trkpt lat="44.13349" lon="3.21871">
        <ele>511.60000610352</ele>
        <time>2020-10-02T14:11:48.000Z</time>
      </trkpt>
      <trkpt lat="44.13346" lon="3.21874">
        <ele>511.20001220703</ele>
        <time>2020-10-02T14:11:50.000Z</time>
      </trkpt>
      <trkpt lat="44.13339" lon="3.2188">
        <ele>510</ele>
        <time>2020-10-02T14:11:54.000Z</time>
      </trkpt>
      <trkpt lat="44.13336" lon="3.21883">
        <ele>509.39999389648</ele>
        <time>2020-10-02T14:11:55.000Z</time>
      </trkpt>
      <trkpt lat="44.13328" lon="3.21892">
        <ele>509</ele>
        <time>2020-10-02T14:11:59.000Z</time>
      </trkpt>
      <trkpt lat="44.13324" lon="3.21895">
        <ele>508.79998779297</ele>
        <time>2020-10-02T14:12:01.000Z</time>
      </trkpt>
      <trkpt lat="44.1332" lon="3.21897">
        <ele>507.60000610352</ele>
        <time>2020-10-02T14:12:04.000Z</time>
      </trkpt>
      <trkpt lat="44.1331" lon="3.21904">
        <ele>507</ele>
        <time>2020-10-02T14:12:08.000Z</time>
      </trkpt>
      <trkpt lat="44.13303" lon="3.21905">
        <ele>507</ele>
        <time>2020-10-02T14:12:10.000Z</time>
      </trkpt>
      <trkpt lat="44.13295" lon="3.21906">
        <ele>506.60000610352</ele>
        <time>2020-10-02T14:12:12.000Z</time>
      </trkpt>
      <trkpt lat="44.13289" lon="3.21906">
        <ele>506.39999389648</ele>
        <time>2020-10-02T14:12:14.000Z</time>
      </trkpt>
      <trkpt lat="44.13285" lon="3.21907">
        <ele>505.60000610352</ele>
        <time>2020-10-02T14:12:16.000Z</time>
      </trkpt>
      <trkpt lat="44.13283" lon="3.21909">
        <ele>505</ele>
        <time>2020-10-02T14:12:17.000Z</time>
      </trkpt>
      <trkpt lat="44.13279" lon="3.21911">
        <ele>503</ele>
        <time>2020-10-02T14:12:19.000Z</time>
      </trkpt>
      <trkpt lat="44.13279" lon="3.21912">
        <ele>502.20001220703</ele>
        <time>2020-10-02T14:12:21.000Z</time>
      </trkpt>
      <trkpt lat="44.13279" lon="3.21912">
        <ele>502</ele>
        <time>2020-10-02T14:12:22.000Z</time>
      </trkpt>
      <trkpt lat="44.13277" lon="3.21913">
        <ele>500.60000610352</ele>
        <time>2020-10-02T14:12:25.000Z</time>
      </trkpt>
      <trkpt lat="44.13277" lon="3.21913">
        <ele>499.39999389648</ele>
        <time>2020-10-02T14:12:27.000Z</time>
      </trkpt>
      <trkpt lat="44.13274" lon="3.21913">
        <ele>498.20001220703</ele>
        <time>2020-10-02T14:12:30.000Z</time>
      </trkpt>
      <trkpt lat="44.13268" lon="3.21916">
        <ele>497.79998779297</ele>
        <time>2020-10-02T14:12:37.000Z</time>
      </trkpt>
      <trkpt lat="44.13262" lon="3.21914">
        <ele>497.79998779297</ele>
        <time>2020-10-02T14:12:40.000Z</time>
      </trkpt>
      <trkpt lat="44.13256" lon="3.21914">
        <ele>497.39999389648</ele>
        <time>2020-10-02T14:12:43.000Z</time>
      </trkpt>
      <trkpt lat="44.13244" lon="3.21918">
        <ele>497.20001220703</ele>
        <time>2020-10-02T14:12:47.000Z</time>
      </trkpt>
      <trkpt lat="44.13236" lon="3.21921">
        <ele>496.79998779297</ele>
        <time>2020-10-02T14:12:51.000Z</time>
      </trkpt>
      <trkpt lat="44.13228" lon="3.21923">
        <ele>496</ele>
        <time>2020-10-02T14:13:00.000Z</time>
      </trkpt>
      <trkpt lat="44.13215" lon="3.21921">
        <ele>495.79998779297</ele>
        <time>2020-10-02T14:13:06.000Z</time>
      </trkpt>
      <trkpt lat="44.13197" lon="3.21923">
        <ele>495.20001220703</ele>
        <time>2020-10-02T14:13:11.000Z</time>
      </trkpt>
      <trkpt lat="44.13192" lon="3.21927">
        <ele>494.20001220703</ele>
        <time>2020-10-02T14:13:13.000Z</time>
      </trkpt>
      <trkpt lat="44.13182" lon="3.21934">
        <ele>492.79998779297</ele>
        <time>2020-10-02T14:13:17.000Z</time>
      </trkpt>
      <trkpt lat="44.13178" lon="3.21937">
        <ele>491.79998779297</ele>
        <time>2020-10-02T14:13:19.000Z</time>
      </trkpt>
      <trkpt lat="44.13172" lon="3.21942">
        <ele>490.60000610352</ele>
        <time>2020-10-02T14:13:22.000Z</time>
      </trkpt>
      <trkpt lat="44.13171" lon="3.21943">
        <ele>490.39999389648</ele>
        <time>2020-10-02T14:13:23.000Z</time>
      </trkpt>
      <trkpt lat="44.13162" lon="3.2196">
        <ele>489.60000610352</ele>
        <time>2020-10-02T14:13:28.000Z</time>
      </trkpt>
      <trkpt lat="44.13158" lon="3.21967">
        <ele>489.39999389648</ele>
        <time>2020-10-02T14:13:30.000Z</time>
      </trkpt>
      <trkpt lat="44.13155" lon="3.21974">
        <ele>489</ele>
        <time>2020-10-02T14:13:32.000Z</time>
      </trkpt>
      <trkpt lat="44.13153" lon="3.21975">
        <ele>488.60000610352</ele>
        <time>2020-10-02T14:13:33.000Z</time>
      </trkpt>
      <trkpt lat="44.13151" lon="3.21976">
        <ele>488.20001220703</ele>
        <time>2020-10-02T14:13:34.000Z</time>
      </trkpt>
      <trkpt lat="44.13144" lon="3.2198">
        <ele>487.79998779297</ele>
        <time>2020-10-02T14:13:38.000Z</time>
      </trkpt>
      <trkpt lat="44.1314" lon="3.21984">
        <ele>487</ele>
        <time>2020-10-02T14:13:40.000Z</time>
      </trkpt>
      <trkpt lat="44.13138" lon="3.21985">
        <ele>486.79998779297</ele>
        <time>2020-10-02T14:13:42.000Z</time>
      </trkpt>
      <trkpt lat="44.13138" lon="3.21986">
        <ele>486.60000610352</ele>
        <time>2020-10-02T14:13:43.000Z</time>
      </trkpt>
      <trkpt lat="44.13133" lon="3.21991">
        <ele>485.79998779297</ele>
        <time>2020-10-02T14:13:47.000Z</time>
      </trkpt>
      <trkpt lat="44.13128" lon="3.21994">
        <ele>485.79998779297</ele>
        <time>2020-10-02T14:13:50.000Z</time>
      </trkpt>
      <trkpt lat="44.13118" lon="3.21998">
        <ele>485.20001220703</ele>
        <time>2020-10-02T14:13:58.000Z</time>
      </trkpt>
      <trkpt lat="44.13107" lon="3.22012">
        <ele>485.20001220703</ele>
        <time>2020-10-02T14:14:01.000Z</time>
      </trkpt>
      <trkpt lat="44.131" lon="3.2202">
        <ele>485</ele>
        <time>2020-10-02T14:14:04.000Z</time>
      </trkpt>
      <trkpt lat="44.13093" lon="3.22019">
        <ele>484.20001220703</ele>
        <time>2020-10-02T14:14:07.000Z</time>
      </trkpt>
      <trkpt lat="44.1309" lon="3.22018">
        <ele>482</ele>
        <time>2020-10-02T14:14:08.000Z</time>
      </trkpt>
      <trkpt lat="44.13085" lon="3.2202">
        <ele>480.39999389648</ele>
        <time>2020-10-02T14:14:10.000Z</time>
      </trkpt>
      <trkpt lat="44.13077" lon="3.22022">
        <ele>479.60000610352</ele>
        <time>2020-10-02T14:14:12.000Z</time>
      </trkpt>
      <trkpt lat="44.13073" lon="3.22023">
        <ele>479.20001220703</ele>
        <time>2020-10-02T14:14:13.000Z</time>
      </trkpt>
      <trkpt lat="44.13064" lon="3.2203">
        <ele>478</ele>
        <time>2020-10-02T14:14:16.000Z</time>
      </trkpt>
      <trkpt lat="44.13058" lon="3.22036">
        <ele>476.79998779297</ele>
        <time>2020-10-02T14:14:19.000Z</time>
      </trkpt>
      <trkpt lat="44.13052" lon="3.22037">
        <ele>476.39999389648</ele>
        <time>2020-10-02T14:14:21.000Z</time>
      </trkpt>
      <trkpt lat="44.13048" lon="3.22041">
        <ele>476.20001220703</ele>
        <time>2020-10-02T14:14:23.000Z</time>
      </trkpt>
      <trkpt lat="44.13047" lon="3.22044">
        <ele>475.79998779297</ele>
        <time>2020-10-02T14:14:25.000Z</time>
      </trkpt>
      <trkpt lat="44.13044" lon="3.22046">
        <ele>475.60000610352</ele>
        <time>2020-10-02T14:14:29.000Z</time>
      </trkpt>
      <trkpt lat="44.13044" lon="3.22049">
        <ele>475.20001220703</ele>
        <time>2020-10-02T14:14:34.000Z</time>
      </trkpt>
      <trkpt lat="44.13038" lon="3.22054">
        <ele>475</ele>
        <time>2020-10-02T14:14:40.000Z</time>
      </trkpt>
      <trkpt lat="44.13037" lon="3.22056">
        <ele>475</ele>
        <time>2020-10-02T14:14:41.000Z</time>
      </trkpt>
      <trkpt lat="44.13029" lon="3.22064">
        <ele>475</ele>
        <time>2020-10-02T14:14:45.000Z</time>
      </trkpt>
      <trkpt lat="44.13027" lon="3.22066">
        <ele>475</ele>
        <time>2020-10-02T14:14:46.000Z</time>
      </trkpt>
      <trkpt lat="44.13021" lon="3.22068">
        <ele>474.60000610352</ele>
        <time>2020-10-02T14:14:50.000Z</time>
      </trkpt>
      <trkpt lat="44.13014" lon="3.22075">
        <ele>474.39999389648</ele>
        <time>2020-10-02T14:14:54.000Z</time>
      </trkpt>
      <trkpt lat="44.13015" lon="3.22091">
        <ele>474</ele>
        <time>2020-10-02T14:14:58.000Z</time>
      </trkpt>
      <trkpt lat="44.13014" lon="3.22094">
        <ele>474</ele>
        <time>2020-10-02T14:14:59.000Z</time>
      </trkpt>
      <trkpt lat="44.13009" lon="3.22101">
        <ele>473.39999389648</ele>
        <time>2020-10-02T14:15:02.000Z</time>
      </trkpt>
      <trkpt lat="44.13008" lon="3.22108">
        <ele>473.20001220703</ele>
        <time>2020-10-02T14:15:04.000Z</time>
      </trkpt>
      <trkpt lat="44.13007" lon="3.22117">
        <ele>472.39999389648</ele>
        <time>2020-10-02T14:15:06.000Z</time>
      </trkpt>
      <trkpt lat="44.13007" lon="3.2212">
        <ele>472.39999389648</ele>
        <time>2020-10-02T14:15:07.000Z</time>
      </trkpt>
      <trkpt lat="44.13001" lon="3.22139">
        <ele>471.39999389648</ele>
        <time>2020-10-02T14:15:12.000Z</time>
      </trkpt>
      <trkpt lat="44.12995" lon="3.22149">
        <ele>470</ele>
        <time>2020-10-02T14:15:17.000Z</time>
      </trkpt>
      <trkpt lat="44.12993" lon="3.2215">
        <ele>469.60000610352</ele>
        <time>2020-10-02T14:15:18.000Z</time>
      </trkpt>
      <trkpt lat="44.12987" lon="3.22155">
        <ele>468.79998779297</ele>
        <time>2020-10-02T14:15:21.000Z</time>
      </trkpt>
      <trkpt lat="44.1298" lon="3.22157">
        <ele>467.79998779297</ele>
        <time>2020-10-02T14:15:24.000Z</time>
      </trkpt>
      <trkpt lat="44.12978" lon="3.22158">
        <ele>467.39999389648</ele>
        <time>2020-10-02T14:15:25.000Z</time>
      </trkpt>
      <trkpt lat="44.12977" lon="3.2216">
        <ele>466.20001220703</ele>
        <time>2020-10-02T14:15:27.000Z</time>
      </trkpt>
      <trkpt lat="44.12977" lon="3.2216">
        <ele>465.79998779297</ele>
        <time>2020-10-02T14:15:28.000Z</time>
      </trkpt>
      <trkpt lat="44.12976" lon="3.22161">
        <ele>464.60000610352</ele>
        <time>2020-10-02T14:15:30.000Z</time>
      </trkpt>
      <trkpt lat="44.12974" lon="3.22163">
        <ele>463.39999389648</ele>
        <time>2020-10-02T14:15:33.000Z</time>
      </trkpt>
      <trkpt lat="44.12971" lon="3.22165">
        <ele>462.79998779297</ele>
        <time>2020-10-02T14:15:41.000Z</time>
      </trkpt>
      <trkpt lat="44.12971" lon="3.22166">
        <ele>462.39999389648</ele>
        <time>2020-10-02T14:16:01.000Z</time>
      </trkpt>
      <trkpt lat="44.12969" lon="3.22167">
        <ele>462.20001220703</ele>
        <time>2020-10-02T14:16:13.000Z</time>
      </trkpt>
      <trkpt lat="44.12959" lon="3.22169">
        <ele>462.20001220703</ele>
        <time>2020-10-02T14:16:22.000Z</time>
      </trkpt>
      <trkpt lat="44.12953" lon="3.22168">
        <ele>462.20001220703</ele>
        <time>2020-10-02T14:16:26.000Z</time>
      </trkpt>
      <trkpt lat="44.12952" lon="3.22167">
        <ele>461.79998779297</ele>
        <time>2020-10-02T14:16:29.000Z</time>
      </trkpt>
      <trkpt lat="44.12951" lon="3.22166">
        <ele>460.60000610352</ele>
        <time>2020-10-02T14:16:32.000Z</time>
      </trkpt>
      <trkpt lat="44.1295" lon="3.22166">
        <ele>460.39999389648</ele>
        <time>2020-10-02T14:16:33.000Z</time>
      </trkpt>
      <trkpt lat="44.1295" lon="3.22165">
        <ele>460</ele>
        <time>2020-10-02T14:16:42.000Z</time>
      </trkpt>
      <trkpt lat="44.12948" lon="3.22164">
        <ele>460</ele>
        <time>2020-10-02T14:16:59.000Z</time>
      </trkpt>
      <trkpt lat="44.12945" lon="3.22166">
        <ele>459.79998779297</ele>
        <time>2020-10-02T14:17:15.000Z</time>
      </trkpt>
      <trkpt lat="44.12938" lon="3.22158">
        <ele>459.79998779297</ele>
        <time>2020-10-02T14:17:21.000Z</time>
      </trkpt>
      <trkpt lat="44.12933" lon="3.22156">
        <ele>459.79998779297</ele>
        <time>2020-10-02T14:17:23.000Z</time>
      </trkpt>
      <trkpt lat="44.12922" lon="3.22148">
        <ele>459.20001220703</ele>
        <time>2020-10-02T14:17:27.000Z</time>
      </trkpt>
      <trkpt lat="44.12916" lon="3.22146">
        <ele>458.20001220703</ele>
        <time>2020-10-02T14:17:29.000Z</time>
      </trkpt>
      <trkpt lat="44.12913" lon="3.22145">
        <ele>458</ele>
        <time>2020-10-02T14:17:31.000Z</time>
      </trkpt>
      <trkpt lat="44.12909" lon="3.2214">
        <ele>457</ele>
        <time>2020-10-02T14:17:34.000Z</time>
      </trkpt>
      <trkpt lat="44.12905" lon="3.22137">
        <ele>456.60000610352</ele>
        <time>2020-10-02T14:17:36.000Z</time>
      </trkpt>
      <trkpt lat="44.12901" lon="3.22135">
        <ele>456.39999389648</ele>
        <time>2020-10-02T14:17:38.000Z</time>
      </trkpt>
      <trkpt lat="44.12896" lon="3.22135">
        <ele>456.20001220703</ele>
        <time>2020-10-02T14:17:41.000Z</time>
      </trkpt>
      <trkpt lat="44.12894" lon="3.22136">
        <ele>456</ele>
        <time>2020-10-02T14:17:42.000Z</time>
      </trkpt>
      <trkpt lat="44.1289" lon="3.22137">
        <ele>454.79998779297</ele>
        <time>2020-10-02T14:17:44.000Z</time>
      </trkpt>
      <trkpt lat="44.12884" lon="3.22135">
        <ele>453.79998779297</ele>
        <time>2020-10-02T14:17:47.000Z</time>
      </trkpt>
      <trkpt lat="44.12874" lon="3.22126">
        <ele>452.60000610352</ele>
        <time>2020-10-02T14:17:51.000Z</time>
      </trkpt>
      <trkpt lat="44.12873" lon="3.22124">
        <ele>452.20001220703</ele>
        <time>2020-10-02T14:17:52.000Z</time>
      </trkpt>
      <trkpt lat="44.1287" lon="3.22121">
        <ele>451.20001220703</ele>
        <time>2020-10-02T14:17:54.000Z</time>
      </trkpt>
      <trkpt lat="44.12865" lon="3.22119">
        <ele>450.20001220703</ele>
        <time>2020-10-02T14:17:57.000Z</time>
      </trkpt>
      <trkpt lat="44.12864" lon="3.22118">
        <ele>449.79998779297</ele>
        <time>2020-10-02T14:17:58.000Z</time>
      </trkpt>
      <trkpt lat="44.12858" lon="3.2211">
        <ele>448.60000610352</ele>
        <time>2020-10-02T14:18:02.000Z</time>
      </trkpt>
      <trkpt lat="44.12856" lon="3.22108">
        <ele>448</ele>
        <time>2020-10-02T14:18:03.000Z</time>
      </trkpt>
      <trkpt lat="44.12851" lon="3.22105">
        <ele>447.20001220703</ele>
        <time>2020-10-02T14:18:05.000Z</time>
      </trkpt>
      <trkpt lat="44.12841" lon="3.22099">
        <ele>446.39999389648</ele>
        <time>2020-10-02T14:18:08.000Z</time>
      </trkpt>
      <trkpt lat="44.12828" lon="3.22091">
        <ele>446</ele>
        <time>2020-10-02T14:18:11.000Z</time>
      </trkpt>
      <trkpt lat="44.12823" lon="3.22089">
        <ele>446</ele>
        <time>2020-10-02T14:18:13.000Z</time>
      </trkpt>
      <trkpt lat="44.12815" lon="3.22092">
        <ele>445.60000610352</ele>
        <time>2020-10-02T14:18:16.000Z</time>
      </trkpt>
      <trkpt lat="44.12803" lon="3.22102">
        <ele>445</ele>
        <time>2020-10-02T14:18:21.000Z</time>
      </trkpt>
      <trkpt lat="44.12796" lon="3.22106">
        <ele>444.20001220703</ele>
        <time>2020-10-02T14:18:23.000Z</time>
      </trkpt>
      <trkpt lat="44.12792" lon="3.22106">
        <ele>442.60000610352</ele>
        <time>2020-10-02T14:18:25.000Z</time>
      </trkpt>
      <trkpt lat="44.12784" lon="3.2211">
        <ele>441.39999389648</ele>
        <time>2020-10-02T14:18:28.000Z</time>
      </trkpt>
      <trkpt lat="44.12777" lon="3.22113">
        <ele>441</ele>
        <time>2020-10-02T14:18:30.000Z</time>
      </trkpt>
      <trkpt lat="44.12765" lon="3.22126">
        <ele>440.20001220703</ele>
        <time>2020-10-02T14:18:34.000Z</time>
      </trkpt>
      <trkpt lat="44.12762" lon="3.22128">
        <ele>439.79998779297</ele>
        <time>2020-10-02T14:18:35.000Z</time>
      </trkpt>
      <trkpt lat="44.12759" lon="3.22129">
        <ele>439</ele>
        <time>2020-10-02T14:18:36.000Z</time>
      </trkpt>
      <trkpt lat="44.12751" lon="3.2213">
        <ele>437.39999389648</ele>
        <time>2020-10-02T14:18:38.000Z</time>
      </trkpt>
      <trkpt lat="44.12744" lon="3.22133">
        <ele>436.20001220703</ele>
        <time>2020-10-02T14:18:40.000Z</time>
      </trkpt>
      <trkpt lat="44.12732" lon="3.2214">
        <ele>435</ele>
        <time>2020-10-02T14:18:43.000Z</time>
      </trkpt>
      <trkpt lat="44.12725" lon="3.22147">
        <ele>434.60000610352</ele>
        <time>2020-10-02T14:18:45.000Z</time>
      </trkpt>
      <trkpt lat="44.12711" lon="3.22162">
        <ele>433.60000610352</ele>
        <time>2020-10-02T14:18:49.000Z</time>
      </trkpt>
      <trkpt lat="44.12707" lon="3.22166">
        <ele>433.20001220703</ele>
        <time>2020-10-02T14:18:50.000Z</time>
      </trkpt>
      <trkpt lat="44.12701" lon="3.22178">
        <ele>432.60000610352</ele>
        <time>2020-10-02T14:18:52.000Z</time>
      </trkpt>
      <trkpt lat="44.12697" lon="3.22191">
        <ele>432</ele>
        <time>2020-10-02T14:18:54.000Z</time>
      </trkpt>
      <trkpt lat="44.12689" lon="3.22215">
        <ele>430.79998779297</ele>
        <time>2020-10-02T14:18:58.000Z</time>
      </trkpt>
      <trkpt lat="44.12686" lon="3.2222">
        <ele>430</ele>
        <time>2020-10-02T14:18:59.000Z</time>
      </trkpt>
      <trkpt lat="44.12683" lon="3.22226">
        <ele>429.60000610352</ele>
        <time>2020-10-02T14:19:00.000Z</time>
      </trkpt>
      <trkpt lat="44.12675" lon="3.22237">
        <ele>428.60000610352</ele>
        <time>2020-10-02T14:19:02.000Z</time>
      </trkpt>
      <trkpt lat="44.12671" lon="3.22241">
        <ele>428.39999389648</ele>
        <time>2020-10-02T14:19:03.000Z</time>
      </trkpt>
      <trkpt lat="44.12662" lon="3.22246">
        <ele>427</ele>
        <time>2020-10-02T14:19:05.000Z</time>
      </trkpt>
      <trkpt lat="44.12654" lon="3.2225">
        <ele>425.79998779297</ele>
        <time>2020-10-02T14:19:07.000Z</time>
      </trkpt>
      <trkpt lat="44.12647" lon="3.22248">
        <ele>424.39999389648</ele>
        <time>2020-10-02T14:19:09.000Z</time>
      </trkpt>
      <trkpt lat="44.12641" lon="3.22247">
        <ele>423.79998779297</ele>
        <time>2020-10-02T14:19:11.000Z</time>
      </trkpt>
      <trkpt lat="44.12638" lon="3.22249">
        <ele>423.39999389648</ele>
        <time>2020-10-02T14:19:14.000Z</time>
      </trkpt>
      <trkpt lat="44.12637" lon="3.22251">
        <ele>423.20001220703</ele>
        <time>2020-10-02T14:19:15.000Z</time>
      </trkpt>
      <trkpt lat="44.12637" lon="3.22255">
        <ele>422.39999389648</ele>
        <time>2020-10-02T14:19:26.000Z</time>
      </trkpt>
      <trkpt lat="44.12637" lon="3.22254">
        <ele>422.20001220703</ele>
        <time>2020-10-02T14:19:53.000Z</time>
      </trkpt>
      <trkpt lat="44.12637" lon="3.22254">
        <ele>422.20001220703</ele>
        <time>2020-10-02T14:20:20.000Z</time>
      </trkpt>
      <trkpt lat="44.12638" lon="3.22258">
        <ele>422.39999389648</ele>
        <time>2020-10-02T14:20:35.000Z</time>
      </trkpt>
      <trkpt lat="44.1264" lon="3.22266">
        <ele>422.39999389648</ele>
        <time>2020-10-02T14:20:48.000Z</time>
      </trkpt>
      <trkpt lat="44.12643" lon="3.22267">
        <ele>422.60000610352</ele>
        <time>2020-10-02T14:21:03.000Z</time>
      </trkpt>
      <trkpt lat="44.12641" lon="3.2227">
        <ele>422.39999389648</ele>
        <time>2020-10-02T14:21:17.000Z</time>
      </trkpt>
      <trkpt lat="44.1263" lon="3.22265">
        <ele>422.39999389648</ele>
        <time>2020-10-02T14:21:22.000Z</time>
      </trkpt>
      <trkpt lat="44.12616" lon="3.22264">
        <ele>422.39999389648</ele>
        <time>2020-10-02T14:21:25.000Z</time>
      </trkpt>
      <trkpt lat="44.1261" lon="3.22266">
        <ele>422.39999389648</ele>
        <time>2020-10-02T14:21:26.000Z</time>
      </trkpt>
      <trkpt lat="44.12582" lon="3.22281">
        <ele>422.39999389648</ele>
        <time>2020-10-02T14:21:30.000Z</time>
      </trkpt>
      <trkpt lat="44.12574" lon="3.22283">
        <ele>422.39999389648</ele>
        <time>2020-10-02T14:21:31.000Z</time>
      </trkpt>
      <trkpt lat="44.12558" lon="3.22282">
        <ele>421.39999389648</ele>
        <time>2020-10-02T14:21:33.000Z</time>
      </trkpt>
      <trkpt lat="44.12551" lon="3.22278">
        <ele>420.60000610352</ele>
        <time>2020-10-02T14:21:34.000Z</time>
      </trkpt>
      <trkpt lat="44.12544" lon="3.22272">
        <ele>419.60000610352</ele>
        <time>2020-10-02T14:21:35.000Z</time>
      </trkpt>
      <trkpt lat="44.12537" lon="3.22266">
        <ele>418.79998779297</ele>
        <time>2020-10-02T14:21:36.000Z</time>
      </trkpt>
      <trkpt lat="44.1253" lon="3.22259">
        <ele>418.20001220703</ele>
        <time>2020-10-02T14:21:37.000Z</time>
      </trkpt>
      <trkpt lat="44.12526" lon="3.22249">
        <ele>417.39999389648</ele>
        <time>2020-10-02T14:21:38.000Z</time>
      </trkpt>
      <trkpt lat="44.1252" lon="3.22239">
        <ele>416.79998779297</ele>
        <time>2020-10-02T14:21:39.000Z</time>
      </trkpt>
      <trkpt lat="44.1251" lon="3.22224">
        <ele>416</ele>
        <time>2020-10-02T14:21:41.000Z</time>
      </trkpt>
      <trkpt lat="44.12507" lon="3.22219">
        <ele>415.79998779297</ele>
        <time>2020-10-02T14:21:42.000Z</time>
      </trkpt>
      <trkpt lat="44.12505" lon="3.22216">
        <ele>415.39999389648</ele>
        <time>2020-10-02T14:21:43.000Z</time>
      </trkpt>
      <trkpt lat="44.12503" lon="3.22214">
        <ele>414.60000610352</ele>
        <time>2020-10-02T14:21:45.000Z</time>
      </trkpt>
      <trkpt lat="44.12502" lon="3.22214">
        <ele>414</ele>
        <time>2020-10-02T14:21:47.000Z</time>
      </trkpt>
      <trkpt lat="44.12498" lon="3.22207">
        <ele>413.60000610352</ele>
        <time>2020-10-02T14:21:54.000Z</time>
      </trkpt>
      <trkpt lat="44.12488" lon="3.22206">
        <ele>413.39999389648</ele>
        <time>2020-10-02T14:21:57.000Z</time>
      </trkpt>
      <trkpt lat="44.12483" lon="3.22206">
        <ele>413.39999389648</ele>
        <time>2020-10-02T14:21:58.000Z</time>
      </trkpt>
      <trkpt lat="44.12459" lon="3.22209">
        <ele>413.39999389648</ele>
        <time>2020-10-02T14:22:02.000Z</time>
      </trkpt>
      <trkpt lat="44.12435" lon="3.22222">
        <ele>412.79998779297</ele>
        <time>2020-10-02T14:22:05.000Z</time>
      </trkpt>
      <trkpt lat="44.12429" lon="3.22226">
        <ele>412.39999389648</ele>
        <time>2020-10-02T14:22:06.000Z</time>
      </trkpt>
      <trkpt lat="44.12424" lon="3.22231">
        <ele>412.20001220703</ele>
        <time>2020-10-02T14:22:07.000Z</time>
      </trkpt>
      <trkpt lat="44.12418" lon="3.22242">
        <ele>411.60000610352</ele>
        <time>2020-10-02T14:22:09.000Z</time>
      </trkpt>
      <trkpt lat="44.12416" lon="3.22247">
        <ele>411</ele>
        <time>2020-10-02T14:22:10.000Z</time>
      </trkpt>
      <trkpt lat="44.12415" lon="3.22252">
        <ele>410.39999389648</ele>
        <time>2020-10-02T14:22:11.000Z</time>
      </trkpt>
      <trkpt lat="44.12413" lon="3.22256">
        <ele>409.60000610352</ele>
        <time>2020-10-02T14:22:12.000Z</time>
      </trkpt>
      <trkpt lat="44.12413" lon="3.22258">
        <ele>409</ele>
        <time>2020-10-02T14:22:13.000Z</time>
      </trkpt>
      <trkpt lat="44.12414" lon="3.2226">
        <ele>408.60000610352</ele>
        <time>2020-10-02T14:22:14.000Z</time>
      </trkpt>
      <trkpt lat="44.12415" lon="3.22263">
        <ele>408.20001220703</ele>
        <time>2020-10-02T14:22:16.000Z</time>
      </trkpt>
      <trkpt lat="44.12413" lon="3.22263">
        <ele>408.20001220703</ele>
        <time>2020-10-02T14:22:17.000Z</time>
      </trkpt>
      <trkpt lat="44.12397" lon="3.22258">
        <ele>408.20001220703</ele>
        <time>2020-10-02T14:22:22.000Z</time>
      </trkpt>
      <trkpt lat="44.12377" lon="3.22245">
        <ele>408.20001220703</ele>
        <time>2020-10-02T14:22:27.000Z</time>
      </trkpt>
      <trkpt lat="44.12369" lon="3.22239">
        <ele>408.20001220703</ele>
        <time>2020-10-02T14:22:29.000Z</time>
      </trkpt>
      <trkpt lat="44.12348" lon="3.22212">
        <ele>408</ele>
        <time>2020-10-02T14:22:36.000Z</time>
      </trkpt>
      <trkpt lat="44.12344" lon="3.222">
        <ele>407.39999389648</ele>
        <time>2020-10-02T14:22:39.000Z</time>
      </trkpt>
      <trkpt lat="44.12339" lon="3.2219">
        <ele>407.20001220703</ele>
        <time>2020-10-02T14:22:42.000Z</time>
      </trkpt>
      <trkpt lat="44.12333" lon="3.22181">
        <ele>407</ele>
        <time>2020-10-02T14:22:45.000Z</time>
      </trkpt>
      <trkpt lat="44.12331" lon="3.22182">
        <ele>407</ele>
        <time>2020-10-02T14:22:46.000Z</time>
      </trkpt>
      <trkpt lat="44.12331" lon="3.22197">
        <ele>406.79998779297</ele>
        <time>2020-10-02T14:22:49.000Z</time>
      </trkpt>
      <trkpt lat="44.12339" lon="3.22212">
        <ele>406.79998779297</ele>
        <time>2020-10-02T14:22:52.000Z</time>
      </trkpt>
      <trkpt lat="44.1234" lon="3.22214">
        <ele>406.60000610352</ele>
        <time>2020-10-02T14:22:53.000Z</time>
      </trkpt>
      <trkpt lat="44.12341" lon="3.22215">
        <ele>406.20001220703</ele>
        <time>2020-10-02T14:22:56.000Z</time>
      </trkpt>
      <trkpt lat="44.1234" lon="3.2221">
        <ele>405.39999389648</ele>
        <time>2020-10-02T14:23:10.000Z</time>
      </trkpt>
      <trkpt lat="44.1234" lon="3.22209">
        <ele>405.20001220703</ele>
        <time>2020-10-02T14:23:34.000Z</time>
      </trkpt>
      <trkpt lat="44.1234" lon="3.22208">
        <ele>405.39999389648</ele>
        <time>2020-10-02T14:24:01.000Z</time>
      </trkpt>
    </trkseg>
  </trk>
</gpx>